Observation data for Endee on 10/18/2019      Previous  Date       Current Mesonet Observations  Soil Data  Daily Summary Page  Observations in Plain Language
KEN1 180500Z 18013KT 16/03 A2982 RMK A01 T01590028  RH  041%=      5-min Rain = 0
KEN1 180501Z 18013KT 16/03 A2982 RMK A01 T01580028  RH  042%=      5-min Rain = 0
KEN1 180502Z 18014KT 16/03 A2982 RMK A01 T01580028  RH  042%=      5-min Rain = 0
KEN1 180503Z 18013KT 16/03 A2982 RMK A01 T01570028  RH  042%=      5-min Rain = 0
KEN1 180504Z 18013KT 16/03 A2982 RMK A01 T01570029  RH  042%=      5-min Rain = 0
KEN1 180505Z 18014KT 16/03 A2982 RMK A01 T01560029  RH  042%=      5-min Rain = 0
KEN1 180506Z 18013KT 16/03 A2982 RMK A01 T01560029  RH  042%=      5-min Rain = 0
KEN1 180507Z 18013KT 16/03 A2982 RMK A01 T01560029  RH  043%=      5-min Rain = 0
KEN1 180508Z 18014KT 16/03 A2982 RMK A01 T01560030  RH  043%=      5-min Rain = 0
KEN1 180509Z 18014KT 16/03 A2982 RMK A01 T01570030  RH  043%=      5-min Rain = 0
KEN1 180510Z 18014KT 16/03 A2982 RMK A01 T01570031  RH  043%=      5-min Rain = 0
KEN1 180511Z 18014KT 16/03 A2982 RMK A01 T01570031  RH  043%=      5-min Rain = 0
KEN1 180512Z 18013KT 16/03 A2982 RMK A01 T01570031  RH  043%=      5-min Rain = 0
KEN1 180513Z 18014KT 16/03 A2982 RMK A01 T01570031  RH  043%=      5-min Rain = 0
KEN1 180514Z 18014KT 16/03 A2982 RMK A01 T01570031  RH  043%=      5-min Rain = 0
KEN1 180515Z 18013KT 16/03 A2982 RMK A01 T01570031  RH  043%=      5-min Rain = 0
KEN1 180516Z 18013KT 16/03 A2982 RMK A01 T01570031  RH  043%=      5-min Rain = 0
KEN1 180517Z 18014KT 16/03 A2982 RMK A01 T01560032  RH  043%=      5-min Rain = 0
KEN1 180518Z 18014KT 16/03 A2982 RMK A01 T01570032  RH  043%=      5-min Rain = 0
KEN1 180519Z 18014KT 16/03 A2982 RMK A01 T01580032  RH  043%=      5-min Rain = 0
KEN1 180520Z 18013KT 16/03 A2982 RMK A01 T01580033  RH  043%=      5-min Rain = 0
KEN1 180521Z 18014KT 16/03 A2982 RMK A01 T01570033  RH  043%=      5-min Rain = 0
KEN1 180522Z 18014KT 16/03 A2982 RMK A01 T01570033  RH  043%=      5-min Rain = 0
KEN1 180523Z 18013KT 16/03 A2982 RMK A01 T01570033  RH  043%=      5-min Rain = 0
KEN1 180524Z 18012KT 16/03 A2982 RMK A01 T01570033  RH  044%=      5-min Rain = 0
KEN1 180525Z 18014KT 16/03 A2982 RMK A01 T01570034  RH  044%=      5-min Rain = 0
KEN1 180526Z 17015KT 16/03 A2981 RMK A01 T01570034  RH  044%=      5-min Rain = 0
KEN1 180527Z 18014KT 16/03 A2981 RMK A01 T01580034  RH  044%=      5-min Rain = 0
KEN1 180528Z 18014KT 16/03 A2981 RMK A01 T01570034  RH  044%=      5-min Rain = 0
KEN1 180529Z 17014KT 16/03 A2981 RMK A01 T01580034  RH  044%=      5-min Rain = 0
KEN1 180530Z 17013KT 16/04 A2981 RMK A01 T01580035  RH  044%=      5-min Rain = 0
KEN1 180531Z 17014KT 16/04 A2981 RMK A01 T01580035  RH  043%=      5-min Rain = 0
KEN1 180532Z 18015KT 16/04 A2981 RMK A01 T01590035  RH  043%=      5-min Rain = 0
KEN1 180533Z 18014KT 16/04 A2981 RMK A01 T01600035  RH  043%=      5-min Rain = 0
KEN1 180534Z 17014KT 16/04 A2981 RMK A01 T01600035  RH  043%=      5-min Rain = 0
KEN1 180535Z 18016KT 16/04 A2981 RMK A01 T01600035  RH  043%=      5-min Rain = 0
KEN1 180536Z 18016KT 16/04 A2981 RMK A01 T01600035  RH  043%=      5-min Rain = 0
KEN1 180537Z 18016KT 16/04 A298 RMK A01 T01610035  RH  043%=      5-min Rain = 0
KEN1 180538Z 18017KT 16/04 A298 RMK A01 T01620035  RH  043%=      5-min Rain = 0
KEN1 180539Z 18016KT 16/04 A298 RMK A01 T01620035  RH  043%=      5-min Rain = 0
KEN1 180540Z 18017KT 16/04 A298 RMK A01 T01620035  RH  043%=      5-min Rain = 0
KEN1 180541Z 18016KT 16/04 A298 RMK A01 T01630035  RH  042%=      5-min Rain = 0
KEN1 180542Z 18016KT 16/04 A298 RMK A01 T01640035  RH  042%=      5-min Rain = 0
KEN1 180543Z 18014KT 16/04 A298 RMK A01 T01640035  RH  042%=      5-min Rain = 0
KEN1 180544Z 18014KT 16/03 A298 RMK A01 T01630034  RH  042%=      5-min Rain = 0
KEN1 180545Z 18014KT 16/04 A298 RMK A01 T01630035  RH  042%=      5-min Rain = 0
KEN1 180546Z 18014KT 16/04 A298 RMK A01 T01630035  RH  042%=      5-min Rain = 0
KEN1 180547Z 18015KT 16/04 A298 RMK A01 T01630035  RH  043%=      5-min Rain = 0
KEN1 180548Z 18015KT 16/04 A298 RMK A01 T01620035  RH  043%=      5-min Rain = 0
KEN1 180549Z 18014G19KT 16/04 A298 RMK A01 T01620035  RH  043%=      5-min Rain = 0
KEN1 180550Z 18014KT 16/04 A2979 RMK A01 T01620035  RH  043%=      5-min Rain = 0
KEN1 180551Z 18016KT 16/04 A2979 RMK A01 T01620035  RH  043%=      5-min Rain = 0
KEN1 180552Z 18015KT 16/04 A2979 RMK A01 T01620035  RH  043%=      5-min Rain = 0
KEN1 180553Z 19015KT 16/04 A2979 RMK A01 T01630035  RH  042%=      5-min Rain = 0
KEN1 180554Z 18016KT 16/04 A2979 RMK A01 T01630035  RH  042%=      5-min Rain = 0
KEN1 180555Z 18015KT 16/04 A2979 RMK A01 T01630035  RH  042%=      5-min Rain = 0
KEN1 180556Z 18016KT 16/04 A2979 RMK A01 T01630035  RH  042%=      5-min Rain = 0
KEN1 180557Z 18015KT 16/04 A2979 RMK A01 T01640035  RH  042%=      5-min Rain = 0
KEN1 180558Z 18016G21KT 16/04 A2979 RMK A01 T01640035  RH  042%=      5-min Rain = 0
KEN1 180559Z 18015KT 17/04 A2979 RMK A01 T01650035  RH  042%=      5-min Rain = 0
KEN1 180600Z 18018KT 17/04 A2979 RMK A01 T01650035  RH  042%=      5-min Rain = 0
KEN1 180601Z 18018G23KT 17/04 A2979 RMK A01 T01660035  RH  042%=      5-min Rain = 0
KEN1 180602Z 18018KT 17/03 A2978 RMK A01 T01660034  RH  041%=      5-min Rain = 0
KEN1 180603Z 18017G22KT 17/04 A2978 RMK A01 T01670035  RH  041%=      5-min Rain = 0
KEN1 180604Z 18021KT 17/04 A2978 RMK A01 T01680035  RH  041%=      5-min Rain = 0
KEN1 180605Z 18019G24KT 17/03 A2978 RMK A01 T01680034  RH  041%=      5-min Rain = 0
KEN1 180606Z 18022KT 17/03 A2978 RMK A01 T01680034  RH  041%=      5-min Rain = 0
KEN1 180607Z 18020KT 17/04 A2978 RMK A01 T01690035  RH  041%=      5-min Rain = 0
KEN1 180608Z 18020KT 17/04 A2978 RMK A01 T01690035  RH  041%=      5-min Rain = 0
KEN1 180609Z 19021KT 17/03 A2978 RMK A01 T01680034  RH  041%=      5-min Rain = 0
KEN1 180610Z 18018KT 17/03 A2978 RMK A01 T01680034  RH  041%=      5-min Rain = 0
KEN1 180611Z 19020KT 17/03 A2978 RMK A01 T01680034  RH  041%=      5-min Rain = 0
KEN1 180612Z 19018G23KT 17/03 A2978 RMK A01 T01680034  RH  041%=      5-min Rain = 0
KEN1 180613Z 19019KT 17/03 A2978 RMK A01 T01680034  RH  041%=      5-min Rain = 0
KEN1 180614Z 19019KT 17/03 A2978 RMK A01 T01680034  RH  041%=      5-min Rain = 0
KEN1 180615Z 19019G26KT 17/03 A2978 RMK A01 T01680034  RH  041%=      5-min Rain = 0
KEN1 180616Z 19021G26KT 17/03 A2978 RMK A01 T01680034  RH  041%=      5-min Rain = 0
KEN1 180617Z 19019G24KT 17/03 A2978 RMK A01 T01690034  RH  040%=      5-min Rain = 0
KEN1 180618Z 19020G25KT 17/03 A2978 RMK A01 T01690034  RH  041%=      5-min Rain = 0
KEN1 180619Z 19024KT 17/03 A2978 RMK A01 T01690034  RH  041%=      5-min Rain = 0
KEN1 180620Z 18021G28KT 17/03 A2978 RMK A01 T01690034  RH  040%=      5-min Rain = 0
KEN1 180621Z 19021G26KT 17/03 A2978 RMK A01 T01700034  RH  040%=      5-min Rain = 0
KEN1 180622Z 18021KT 17/03 A2978 RMK A01 T01700034  RH  040%=      5-min Rain = 0
KEN1 180623Z 19020G27KT 17/03 A2978 RMK A01 T01690034  RH  040%=      5-min Rain = 0
KEN1 180624Z 19020KT 17/03 A2978 RMK A01 T01690034  RH  040%=      5-min Rain = 0
KEN1 180625Z 18020G25KT 17/03 A2978 RMK A01 T01690034  RH  041%=      5-min Rain = 0
KEN1 180626Z 19021G26KT 17/03 A2977 RMK A01 T01690034  RH  040%=      5-min Rain = 0
KEN1 180627Z 19020KT 17/03 A2978 RMK A01 T01700034  RH  040%=      5-min Rain = 0
KEN1 180628Z 19020G25KT 17/03 A2977 RMK A01 T01700034  RH  040%=      5-min Rain = 0
KEN1 180629Z 18019G25KT 17/03 A2977 RMK A01 T01700034  RH  040%=      5-min Rain = 0
KEN1 180630Z 19023KT 17/03 A2977 RMK A01 T01690034  RH  040%=      5-min Rain = 0
KEN1 180631Z 19020KT 17/03 A2977 RMK A01 T01700034  RH  040%=      5-min Rain = 0
KEN1 180632Z 18022KT 17/03 A2977 RMK A01 T01700034  RH  040%=      5-min Rain = 0
KEN1 180633Z 19021KT 17/03 A2977 RMK A01 T01700034  RH  040%=      5-min Rain = 0
KEN1 180634Z 19023G28KT 17/03 A2977 RMK A01 T01690034  RH  040%=      5-min Rain = 0
KEN1 180635Z 18020KT 17/03 A2977 RMK A01 T01700034  RH  040%=      5-min Rain = 0
KEN1 180636Z 18023KT 17/03 A2977 RMK A01 T01700034  RH  040%=      5-min Rain = 0
KEN1 180637Z 19021KT 17/03 A2977 RMK A01 T01700034  RH  040%=      5-min Rain = 0
KEN1 180638Z 19019KT 17/03 A2977 RMK A01 T01700034  RH  040%=      5-min Rain = 0
KEN1 180639Z 19020KT 17/03 A2977 RMK A01 T01690034  RH  041%=      5-min Rain = 0
KEN1 180640Z 19020G25KT 17/03 A2977 RMK A01 T01680034  RH  041%=      5-min Rain = 0
KEN1 180641Z 18021G26KT 17/03 A2977 RMK A01 T01690034  RH  041%=      5-min Rain = 0
KEN1 180642Z 18023KT 17/03 A2977 RMK A01 T01690034  RH  041%=      5-min Rain = 0
KEN1 180643Z 19023KT 17/03 A2977 RMK A01 T01700034  RH  040%=      5-min Rain = 0
KEN1 180644Z 19020KT 17/04 A2977 RMK A01 T01710035  RH  040%=      5-min Rain = 0
KEN1 180645Z 19022KT 17/04 A2977 RMK A01 T01700035  RH  040%=      5-min Rain = 0
KEN1 180646Z 19021KT 17/04 A2977 RMK A01 T01700035  RH  040%=      5-min Rain = 0
KEN1 180647Z 19019KT 17/04 A2977 RMK A01 T01700035  RH  040%=      5-min Rain = 0
KEN1 180648Z 19020KT 17/04 A2977 RMK A01 T01700035  RH  041%=      5-min Rain = 0
KEN1 180649Z 19021G26KT 17/04 A2977 RMK A01 T01690036  RH  041%=      5-min Rain = 0
KEN1 180650Z 19023G28KT 17/04 A2977 RMK A01 T01700036  RH  041%=      5-min Rain = 0
KEN1 180651Z 19019KT 17/04 A2977 RMK A01 T01700036  RH  041%=      5-min Rain = 0
KEN1 180652Z 19019KT 17/04 A2977 RMK A01 T01690036  RH  041%=      5-min Rain = 0
KEN1 180653Z 19020KT 17/04 A2977 RMK A01 T01680036  RH  041%=      5-min Rain = 0
KEN1 180654Z 19020KT 17/04 A2977 RMK A01 T01690037  RH  041%=      5-min Rain = 0
KEN1 180655Z 19019KT 17/04 A2977 RMK A01 T01680037  RH  041%=      5-min Rain = 0
KEN1 180656Z 20019KT 17/04 A2977 RMK A01 T01680037  RH  042%=      5-min Rain = 0
KEN1 180657Z 19020G25KT 17/04 A2977 RMK A01 T01680037  RH  042%=      5-min Rain = 0
KEN1 180658Z 19019KT 17/04 A2977 RMK A01 T01680038  RH  042%=      5-min Rain = 0
KEN1 180659Z 19020KT 17/04 A2977 RMK A01 T01680038  RH  042%=      5-min Rain = 0
KEN1 180700Z 19020KT 17/04 A2977 RMK A01 T01680038  RH  042%=      5-min Rain = 0
KEN1 180701Z 19019KT 17/04 A2977 RMK A01 T01680038  RH  042%=      5-min Rain = 0
KEN1 180702Z 19019KT 17/04 A2977 RMK A01 T01680039  RH  042%=      5-min Rain = 0
KEN1 180703Z 19019KT 17/04 A2977 RMK A01 T01680039  RH  042%=      5-min Rain = 0
KEN1 180704Z 19018KT 17/04 A2977 RMK A01 T01680039  RH  042%=      5-min Rain = 0
KEN1 180705Z 19018KT 17/04 A2977 RMK A01 T01670039  RH  043%=      5-min Rain = 0
KEN1 180706Z 19019G25KT 17/04 A2977 RMK A01 T01660039  RH  043%=      5-min Rain = 0
KEN1 180707Z 19019KT 17/04 A2977 RMK A01 T01660039  RH  043%=      5-min Rain = 0
KEN1 180708Z 19019KT 17/04 A2977 RMK A01 T01660039  RH  043%=      5-min Rain = 0
KEN1 180709Z 19019KT 17/04 A2977 RMK A01 T01660039  RH  043%=      5-min Rain = 0
KEN1 180710Z 19017KT 17/04 A2977 RMK A01 T01660039  RH  043%=      5-min Rain = 0
KEN1 180711Z 19018KT 17/04 A2977 RMK A01 T01660039  RH  043%=      5-min Rain = 0
KEN1 180712Z 19018KT 17/04 A2978 RMK A01 T01660039  RH  043%=      5-min Rain = 0
KEN1 180713Z 20015KT 17/04 A2978 RMK A01 T01660039  RH  043%=      5-min Rain = 0
KEN1 180714Z 20017KT 17/04 A2978 RMK A01 T01650039  RH  043%=      5-min Rain = 0
KEN1 180715Z 20015G20KT 17/04 A2978 RMK A01 T01650039  RH  043%=      5-min Rain = 0
KEN1 180716Z 19016G21KT 17/04 A2978 RMK A01 T01650040  RH  043%=      5-min Rain = 0
KEN1 180717Z 19015KT 17/04 A2978 RMK A01 T01650040  RH  043%=      5-min Rain = 0
KEN1 180718Z 19017KT 16/04 A2978 RMK A01 T01640040  RH  044%=      5-min Rain = 0
KEN1 180719Z 19014KT 17/04 A2978 RMK A01 T01650040  RH  043%=      5-min Rain = 0
KEN1 180720Z 19017KT 17/04 A2978 RMK A01 T01650040  RH  044%=      5-min Rain = 0
KEN1 180721Z 19014KT 16/04 A2978 RMK A01 T01640040  RH  043%=      5-min Rain = 0
KEN1 180722Z 19014G19KT 16/04 A2978 RMK A01 T01640040  RH  044%=      5-min Rain = 0
KEN1 180723Z 19015KT 16/04 A2978 RMK A01 T01640040  RH  044%=      5-min Rain = 0
KEN1 180724Z 19017KT 16/04 A2978 RMK A01 T01630040  RH  044%=      5-min Rain = 0
KEN1 180725Z 19014KT 16/04 A2978 RMK A01 T01640040  RH  044%=      5-min Rain = 0
KEN1 180726Z 19015KT 16/04 A2978 RMK A01 T01630040  RH  044%=      5-min Rain = 0
KEN1 180727Z 19014KT 16/04 A2978 RMK A01 T01630039  RH  044%=      5-min Rain = 0
KEN1 180728Z 19016KT 16/04 A2978 RMK A01 T01620039  RH  044%=      5-min Rain = 0
KEN1 180729Z 19015KT 16/04 A2978 RMK A01 T01610039  RH  044%=      5-min Rain = 0
KEN1 180730Z 19016KT 16/04 A2978 RMK A01 T01620040  RH  044%=      5-min Rain = 0
KEN1 180731Z 19014KT 16/04 A2978 RMK A01 T01610040  RH  044%=      5-min Rain = 0
KEN1 180732Z 19015KT 16/04 A2978 RMK A01 T01620040  RH  044%=      5-min Rain = 0
KEN1 180733Z 19015KT 16/04 A2978 RMK A01 T01610040  RH  044%=      5-min Rain = 0
KEN1 180734Z 19014KT 16/04 A2978 RMK A01 T01610040  RH  044%=      5-min Rain = 0
KEN1 180735Z 19013KT 16/04 A2978 RMK A01 T01610040  RH  045%=      5-min Rain = 0
KEN1 180736Z 19013KT 16/04 A2978 RMK A01 T01610040  RH  044%=      5-min Rain = 0
KEN1 180737Z 19013KT 16/04 A2978 RMK A01 T01610040  RH  045%=      5-min Rain = 0
KEN1 180738Z 19012KT 16/04 A2978 RMK A01 T01600040  RH  045%=      5-min Rain = 0
KEN1 180739Z 19012KT 16/04 A2978 RMK A01 T01590040  RH  045%=      5-min Rain = 0
KEN1 180740Z 19013KT 16/04 A2978 RMK A01 T01580040  RH  045%=      5-min Rain = 0
KEN1 180741Z 19014KT 16/04 A2978 RMK A01 T01580041  RH  045%=      5-min Rain = 0
KEN1 180742Z 19013KT 16/04 A2978 RMK A01 T01590041  RH  045%=      5-min Rain = 0
KEN1 180743Z 18013KT 16/04 A2978 RMK A01 T01590040  RH  045%=      5-min Rain = 0
KEN1 180744Z 19014KT 16/04 A2978 RMK A01 T01600041  RH  045%=      5-min Rain = 0
KEN1 180745Z 19012KT 16/04 A2978 RMK A01 T01610041  RH  045%=      5-min Rain = 0
KEN1 180746Z 19014KT 16/04 A2978 RMK A01 T01600041  RH  045%=      5-min Rain = 0
KEN1 180747Z 19013KT 16/04 A2978 RMK A01 T01600041  RH  045%=      5-min Rain = 0
KEN1 180748Z 19012KT 16/04 A2978 RMK A01 T01610041  RH  045%=      5-min Rain = 0
KEN1 180749Z 19015KT 16/04 A2978 RMK A01 T01610041  RH  045%=      5-min Rain = 0
KEN1 180750Z 18013KT 16/04 A2978 RMK A01 T01610040  RH  044%=      5-min Rain = 0
KEN1 180751Z 18013KT 16/04 A2978 RMK A01 T01610040  RH  045%=      5-min Rain = 0
KEN1 180752Z 19013KT 16/04 A2978 RMK A01 T01610041  RH  045%=      5-min Rain = 0
KEN1 180753Z 19013KT 16/04 A2978 RMK A01 T01610040  RH  045%=      5-min Rain = 0
KEN1 180754Z 19013KT 16/04 A2978 RMK A01 T01610040  RH  044%=      5-min Rain = 0
KEN1 180755Z 19014KT 16/04 A2978 RMK A01 T01610040  RH  045%=      5-min Rain = 0
KEN1 180756Z 19012KT 16/04 A2978 RMK A01 T01610040  RH  045%=      5-min Rain = 0
KEN1 180757Z 19012G17KT 16/04 A2978 RMK A01 T01610041  RH  045%=      5-min Rain = 0
KEN1 180758Z 19013KT 16/04 A2978 RMK A01 T01600040  RH  045%=      5-min Rain = 0
KEN1 180759Z 19013G18KT 16/04 A2978 RMK A01 T01610041  RH  045%=      5-min Rain = 0
KEN1 180800Z 19016KT 16/04 A2978 RMK A01 T01610041  RH  045%=      5-min Rain = 0
KEN1 180801Z 19016KT 16/04 A2978 RMK A01 T01620041  RH  044%=      5-min Rain = 0
KEN1 180802Z 19015KT 16/04 A2978 RMK A01 T01640041  RH  044%=      5-min Rain = 0
KEN1 180803Z 19014KT 16/04 A2978 RMK A01 T01640041  RH  044%=      5-min Rain = 0
KEN1 180804Z 19016KT 16/04 A2978 RMK A01 T01630041  RH  044%=      5-min Rain = 0
KEN1 180805Z 19015KT 16/04 A2978 RMK A01 T01630041  RH  044%=      5-min Rain = 0
KEN1 180806Z 19013KT 16/04 A2978 RMK A01 T01630041  RH  044%=      5-min Rain = 0
KEN1 180807Z 18012KT 16/04 A2978 RMK A01 T01620041  RH  045%=      5-min Rain = 0
KEN1 180808Z 18012KT 16/04 A2978 RMK A01 T01600041  RH  045%=      5-min Rain = 0
KEN1 180809Z 19013KT 16/04 A2978 RMK A01 T01590041  RH  046%=      5-min Rain = 0
KEN1 180810Z 18012KT 16/04 A2978 RMK A01 T01580042  RH  046%=      5-min Rain = 0
KEN1 180811Z 18013KT 16/04 A2978 RMK A01 T01570042  RH  046%=      5-min Rain = 0
KEN1 180812Z 18012KT 16/04 A2978 RMK A01 T01570042  RH  046%=      5-min Rain = 0
KEN1 180813Z 18012KT 16/04 A2978 RMK A01 T01560042  RH  047%=      5-min Rain = 0
KEN1 180814Z 18013KT 16/04 A2978 RMK A01 T01550042  RH  047%=      5-min Rain = 0
KEN1 180815Z 18012KT 16/04 A2978 RMK A01 T01560042  RH  047%=      5-min Rain = 0
KEN1 180816Z 19015KT 16/04 A2978 RMK A01 T01570042  RH  046%=      5-min Rain = 0
KEN1 180817Z 18011KT 16/04 A2978 RMK A01 T01580042  RH  046%=      5-min Rain = 0
KEN1 180818Z 18010KT 16/04 A2978 RMK A01 T01580042  RH  046%=      5-min Rain = 0
KEN1 180819Z 19011KT 16/04 A2978 RMK A01 T01560043  RH  047%=      5-min Rain = 0
KEN1 180820Z 20013KT 16/04 A2977 RMK A01 T01560043  RH  047%=      5-min Rain = 0
KEN1 180821Z 19013KT 16/04 A2978 RMK A01 T01580043  RH  046%=      5-min Rain = 0
KEN1 180822Z 19012KT 16/04 A2978 RMK A01 T01600043  RH  046%=      5-min Rain = 0
KEN1 180823Z 20012G17KT 16/04 A2977 RMK A01 T01610043  RH  046%=      5-min Rain = 0
KEN1 180824Z 20015KT 16/04 A2977 RMK A01 T01620044  RH  045%=      5-min Rain = 0
KEN1 180825Z 19016KT 16/04 A2977 RMK A01 T01630044  RH  045%=      5-min Rain = 0
KEN1 180826Z 19014KT 16/04 A2977 RMK A01 T01630044  RH  045%=      5-min Rain = 0
KEN1 180827Z 20016G21KT 16/04 A2977 RMK A01 T01640044  RH  045%=      5-min Rain = 0
KEN1 180828Z 20017KT 16/04 A2977 RMK A01 T01640044  RH  045%=      5-min Rain = 0
KEN1 180829Z 20014KT 17/05 A2977 RMK A01 T01650045  RH  045%=      5-min Rain = 0
KEN1 180830Z 20014KT 17/05 A2977 RMK A01 T01650045  RH  045%=      5-min Rain = 0
KEN1 180831Z 20014KT 17/05 A2977 RMK A01 T01650045  RH  045%=      5-min Rain = 0
KEN1 180832Z 20014G19KT 17/05 A2977 RMK A01 T01650045  RH  045%=      5-min Rain = 0
KEN1 180833Z 20017KT 16/05 A2977 RMK A01 T01640045  RH  045%=      5-min Rain = 0
KEN1 180834Z 20014KT 16/05 A2977 RMK A01 T01640045  RH  045%=      5-min Rain = 0
KEN1 180835Z 20018KT 17/05 A2977 RMK A01 T01650045  RH  045%=      5-min Rain = 0
KEN1 180836Z 20017KT 17/05 A2977 RMK A01 T01660045  RH  045%=      5-min Rain = 0
KEN1 180837Z 20016KT 17/05 A2977 RMK A01 T01660045  RH  045%=      5-min Rain = 0
KEN1 180838Z 20016KT 17/05 A2977 RMK A01 T01660046  RH  045%=      5-min Rain = 0
KEN1 180839Z 20014KT 17/05 A2977 RMK A01 T01650046  RH  045%=      5-min Rain = 0
KEN1 180840Z 20013KT 16/05 A2977 RMK A01 T01630045  RH  045%=      5-min Rain = 0
KEN1 180841Z 20014KT 16/05 A2977 RMK A01 T01620046  RH  046%=      5-min Rain = 0
KEN1 180842Z 20015KT 16/05 A2977 RMK A01 T01620046  RH  046%=      5-min Rain = 0
KEN1 180843Z 20016KT 16/05 A2977 RMK A01 T01620046  RH  046%=      5-min Rain = 0
KEN1 180844Z 20015KT 16/05 A2977 RMK A01 T01620046  RH  046%=      5-min Rain = 0
KEN1 180845Z 19015KT 16/05 A2977 RMK A01 T01620046  RH  046%=      5-min Rain = 0
KEN1 180846Z 20015KT 16/05 A2977 RMK A01 T01620046  RH  046%=      5-min Rain = 0
KEN1 180847Z 20015KT 16/05 A2977 RMK A01 T01620046  RH  046%=      5-min Rain = 0
KEN1 180848Z 20014KT 16/05 A2977 RMK A01 T01620047  RH  046%=      5-min Rain = 0
KEN1 180849Z 20014KT 16/05 A2977 RMK A01 T01620047  RH  046%=      5-min Rain = 0
KEN1 180850Z 20015KT 16/05 A2977 RMK A01 T01620047  RH  046%=      5-min Rain = 0
KEN1 180851Z 20016KT 16/05 A2977 RMK A01 T01620047  RH  046%=      5-min Rain = 0
KEN1 180852Z 20015KT 16/05 A2977 RMK A01 T01620047  RH  046%=      5-min Rain = 0
KEN1 180853Z 20013KT 16/05 A2977 RMK A01 T01620047  RH  046%=      5-min Rain = 0
KEN1 180854Z 20013KT 16/05 A2977 RMK A01 T01620047  RH  046%=      5-min Rain = 0
KEN1 180855Z 20014KT 16/05 A2977 RMK A01 T01610047  RH  047%=      5-min Rain = 0
KEN1 180856Z 20012KT 16/05 A2977 RMK A01 T01610047  RH  047%=      5-min Rain = 0
KEN1 180857Z 20013KT 16/05 A2977 RMK A01 T01600047  RH  047%=      5-min Rain = 0
KEN1 180858Z 19012KT 16/05 A2977 RMK A01 T01600047  RH  047%=      5-min Rain = 0
KEN1 180859Z 19012KT 16/05 A2977 RMK A01 T01600047  RH  047%=      5-min Rain = 0
KEN1 180900Z 19012KT 16/05 A2977 RMK A01 T01600048  RH  047%=      5-min Rain = 0
KEN1 180901Z 19011KT 16/05 A2977 RMK A01 T01590048  RH  047%=      5-min Rain = 0
KEN1 180902Z 19010KT 16/05 A2977 RMK A01 T01580047  RH  048%=      5-min Rain = 0
KEN1 180903Z 19011KT 16/05 A2977 RMK A01 T01570047  RH  048%=      5-min Rain = 0
KEN1 180904Z 19010KT 16/05 A2976 RMK A01 T01570047  RH  048%=      5-min Rain = 0
KEN1 180905Z 19011KT 16/05 A2976 RMK A01 T01570048  RH  048%=      5-min Rain = 0
KEN1 180906Z 18009KT 16/05 A2976 RMK A01 T01560048  RH  049%=      5-min Rain = 0
KEN1 180907Z 19009KT 15/05 A2976 RMK A01 T01530048  RH  049%=      5-min Rain = 0
KEN1 180908Z 19008KT 15/05 A2976 RMK A01 T01510048  RH  050%=      5-min Rain = 0
KEN1 180909Z 19008KT 15/05 A2976 RMK A01 T01490048  RH  051%=      5-min Rain = 0
KEN1 180910Z 18008KT 15/05 A2976 RMK A01 T01480048  RH  051%=      5-min Rain = 0
KEN1 180911Z 18007KT 15/05 A2976 RMK A01 T01470048  RH  052%=      5-min Rain = 0
KEN1 180912Z 19007KT 15/05 A2976 RMK A01 T01460048  RH  052%=      5-min Rain = 0
KEN1 180913Z 18005KT 15/05 A2976 RMK A01 T01460048  RH  052%=      5-min Rain = 0
KEN1 180914Z 19006KT 15/05 A2976 RMK A01 T01460048  RH  052%=      5-min Rain = 0
KEN1 180915Z 19008KT 15/05 A2976 RMK A01 T01460048  RH  052%=      5-min Rain = 0
KEN1 180916Z 20008KT 15/05 A2976 RMK A01 T01490048  RH  051%=      5-min Rain = 0
KEN1 180917Z 21011KT 15/05 A2976 RMK A01 T01520048  RH  050%=      5-min Rain = 0
KEN1 180918Z 21013KT 16/05 A2976 RMK A01 T01550049  RH  049%=      5-min Rain = 0
KEN1 180919Z 21012G17KT 16/05 A2976 RMK A01 T01580049  RH  049%=      5-min Rain = 0
KEN1 180920Z 21017KT 16/05 A2976 RMK A01 T01580049  RH  048%=      5-min Rain = 0
KEN1 180921Z 21016KT 16/05 A2976 RMK A01 T01600049  RH  048%=      5-min Rain = 0
KEN1 180922Z 21018G24KT 16/05 A2975 RMK A01 T01610049  RH  047%=      5-min Rain = 0
KEN1 180923Z 21016KT 16/05 A2975 RMK A01 T01620049  RH  047%=      5-min Rain = 0
KEN1 180924Z 21018KT 16/05 A2975 RMK A01 T01620049  RH  047%=      5-min Rain = 0
KEN1 180925Z 21018KT 16/05 A2975 RMK A01 T01620049  RH  047%=      5-min Rain = 0
KEN1 180926Z 21019KT 16/05 A2975 RMK A01 T01620049  RH  047%=      5-min Rain = 0
KEN1 180927Z 21017G22KT 16/05 A2975 RMK A01 T01630049  RH  047%=      5-min Rain = 0
KEN1 180928Z 21019KT 16/05 A2975 RMK A01 T01640050  RH  047%=      5-min Rain = 0
KEN1 180929Z 21015KT 16/05 A2975 RMK A01 T01640050  RH  047%=      5-min Rain = 0
KEN1 180930Z 21016KT 16/05 A2975 RMK A01 T01630050  RH  047%=      5-min Rain = 0
KEN1 180931Z 21019KT 16/05 A2975 RMK A01 T01630050  RH  047%=      5-min Rain = 0
KEN1 180932Z 21018KT 16/05 A2975 RMK A01 T01640050  RH  047%=      5-min Rain = 0
KEN1 180933Z 21020KT 17/05 A2975 RMK A01 T01650050  RH  046%=      5-min Rain = 0
KEN1 180934Z 21019KT 17/05 A2975 RMK A01 T01660050  RH  046%=      5-min Rain = 0
KEN1 180935Z 21017KT 17/05 A2975 RMK A01 T01670051  RH  046%=      5-min Rain = 0
KEN1 180936Z 21016KT 17/05 A2975 RMK A01 T01670051  RH  046%=      5-min Rain = 0
KEN1 180937Z 21017G22KT 17/05 A2975 RMK A01 T01660050  RH  046%=      5-min Rain = 0
KEN1 180938Z 21017KT 17/05 A2975 RMK A01 T01660050  RH  046%=      5-min Rain = 0
KEN1 180939Z 21016KT 17/05 A2975 RMK A01 T01660051  RH  046%=      5-min Rain = 0
KEN1 180940Z 21017KT 17/05 A2975 RMK A01 T01660051  RH  046%=      5-min Rain = 0
KEN1 180941Z 21016KT 17/05 A2975 RMK A01 T01660051  RH  046%=      5-min Rain = 0
KEN1 180942Z 21017KT 17/05 A2975 RMK A01 T01670051  RH  046%=      5-min Rain = 0
KEN1 180943Z 21017KT 17/05 A2975 RMK A01 T01670051  RH  046%=      5-min Rain = 0
KEN1 180944Z 20021KT 17/05 A2975 RMK A01 T01680052  RH  046%=      5-min Rain = 0
KEN1 180945Z 21018KT 17/05 A2975 RMK A01 T01690052  RH  046%=      5-min Rain = 0
KEN1 180946Z 20017KT 17/05 A2975 RMK A01 T01690052  RH  046%=      5-min Rain = 0
KEN1 180947Z 20018KT 17/05 A2975 RMK A01 T01690052  RH  046%=      5-min Rain = 0
KEN1 180948Z 21018KT 17/05 A2975 RMK A01 T01690052  RH  046%=      5-min Rain = 0
KEN1 180949Z 21020KT 17/05 A2975 RMK A01 T01690052  RH  046%=      5-min Rain = 0
KEN1 180950Z 21019G24KT 17/05 A2975 RMK A01 T01700052  RH  046%=      5-min Rain = 0
KEN1 180951Z 20018KT 17/05 A2975 RMK A01 T01700052  RH  046%=      5-min Rain = 0
KEN1 180952Z 20016KT 17/05 A2975 RMK A01 T01700052  RH  046%=      5-min Rain = 0
KEN1 180953Z 20017KT 17/05 A2975 RMK A01 T01690053  RH  046%=      5-min Rain = 0
KEN1 180954Z 21016G21KT 17/05 A2975 RMK A01 T01680052  RH  046%=      5-min Rain = 0
KEN1 180955Z 20014KT 17/05 A2975 RMK A01 T01680053  RH  047%=      5-min Rain = 0
KEN1 180956Z 20014KT 17/05 A2975 RMK A01 T01670053  RH  047%=      5-min Rain = 0
KEN1 180957Z 20016KT 17/05 A2975 RMK A01 T01660053  RH  047%=      5-min Rain = 0
KEN1 180958Z 21014G19KT 17/05 A2975 RMK A01 T01660053  RH  047%=      5-min Rain = 0
KEN1 180959Z 21014KT 17/05 A2975 RMK A01 T01660053  RH  047%=      5-min Rain = 0
KEN1 181000Z 21014KT 17/05 A2975 RMK A01 T01660053  RH  047%=      5-min Rain = 0
KEN1 181001Z 21014KT 17/05 A2975 RMK A01 T01650053  RH  048%=      5-min Rain = 0
KEN1 181002Z 21016KT 16/05 A2975 RMK A01 T01640053  RH  048%=      5-min Rain = 0
KEN1 181003Z 21014KT 16/05 A2975 RMK A01 T01640053  RH  048%=      5-min Rain = 0
KEN1 181004Z 21015KT 16/05 A2975 RMK A01 T01640053  RH  048%=      5-min Rain = 0
KEN1 181005Z 20014KT 16/05 A2975 RMK A01 T01640054  RH  048%=      5-min Rain = 0
KEN1 181006Z 21014KT 16/05 A2975 RMK A01 T01640054  RH  048%=      5-min Rain = 0
KEN1 181007Z 21014KT 16/05 A2975 RMK A01 T01630054  RH  048%=      5-min Rain = 0
KEN1 181008Z 21015KT 16/05 A2975 RMK A01 T01630054  RH  048%=      5-min Rain = 0
KEN1 181009Z 21016KT 16/05 A2975 RMK A01 T01630054  RH  048%=      5-min Rain = 0
KEN1 181010Z 21016KT 16/05 A2975 RMK A01 T01630054  RH  048%=      5-min Rain = 0
KEN1 181011Z 21015KT 16/05 A2975 RMK A01 T01630054  RH  048%=      5-min Rain = 0
KEN1 181012Z 21014KT 16/06 A2975 RMK A01 T01630055  RH  049%=      5-min Rain = 0
KEN1 181013Z 21014KT 16/05 A2975 RMK A01 T01620054  RH  049%=      5-min Rain = 0
KEN1 181014Z 21014KT 16/05 A2975 RMK A01 T01610054  RH  049%=      5-min Rain = 0
KEN1 181015Z 21015KT 16/05 A2975 RMK A01 T01610054  RH  049%=      5-min Rain = 0
KEN1 181016Z 21014G19KT 16/05 A2975 RMK A01 T01610054  RH  049%=      5-min Rain = 0
KEN1 181017Z 21013KT 16/06 A2975 RMK A01 T01610055  RH  049%=      5-min Rain = 0
KEN1 181018Z 21013KT 16/06 A2975 RMK A01 T01600055  RH  049%=      5-min Rain = 0
KEN1 181019Z 20013KT 16/06 A2975 RMK A01 T01600055  RH  050%=      5-min Rain = 0
KEN1 181020Z 21014KT 16/06 A2975 RMK A01 T01600055  RH  050%=      5-min Rain = 0
KEN1 181021Z 21013KT 16/06 A2975 RMK A01 T01610055  RH  049%=      5-min Rain = 0
KEN1 181022Z 20012KT 16/06 A2975 RMK A01 T01610055  RH  049%=      5-min Rain = 0
KEN1 181023Z 21012KT 16/06 A2975 RMK A01 T01610056  RH  050%=      5-min Rain = 0
KEN1 181024Z 20012KT 16/06 A2975 RMK A01 T01600056  RH  050%=      5-min Rain = 0
KEN1 181025Z 20013KT 16/06 A2975 RMK A01 T01600056  RH  050%=      5-min Rain = 0
KEN1 181026Z 21011KT 16/06 A2975 RMK A01 T01600056  RH  050%=      5-min Rain = 0
KEN1 181027Z 21012KT 16/06 A2975 RMK A01 T01590056  RH  050%=      5-min Rain = 0
KEN1 181028Z 21011KT 16/06 A2975 RMK A01 T01590056  RH  051%=      5-min Rain = 0
KEN1 181029Z 21013KT 16/06 A2975 RMK A01 T01580056  RH  051%=      5-min Rain = 0
KEN1 181030Z 21011KT 16/06 A2975 RMK A01 T01580056  RH  051%=      5-min Rain = 0
KEN1 181031Z 21011KT 16/06 A2975 RMK A01 T01590057  RH  051%=      5-min Rain = 0
KEN1 181032Z 21010KT 16/06 A2975 RMK A01 T01590057  RH  051%=      5-min Rain = 0
KEN1 181033Z 21010KT 16/06 A2976 RMK A01 T01580057  RH  051%=      5-min Rain = 0
KEN1 181034Z 21010KT 16/06 A2976 RMK A01 T01570057  RH  051%=      5-min Rain = 0
KEN1 181035Z 21012KT 16/06 A2976 RMK A01 T01560057  RH  052%=      5-min Rain = 0
KEN1 181036Z 21013KT 16/06 A2976 RMK A01 T01570057  RH  051%=      5-min Rain = 0
KEN1 181037Z 21014KT 16/06 A2975 RMK A01 T01580057  RH  051%=      5-min Rain = 0
KEN1 181038Z 21013KT 16/06 A2975 RMK A01 T01580057  RH  051%=      5-min Rain = 0
KEN1 181039Z 21014KT 16/06 A2975 RMK A01 T01580057  RH  051%=      5-min Rain = 0
KEN1 181040Z 21015KT 16/06 A2975 RMK A01 T01590057  RH  051%=      5-min Rain = 0
KEN1 181041Z 21014KT 16/06 A2975 RMK A01 T01600057  RH  050%=      5-min Rain = 0
KEN1 181042Z 21015KT 16/06 A2975 RMK A01 T01600057  RH  050%=      5-min Rain = 0
KEN1 181043Z 22016KT 16/06 A2975 RMK A01 T01600057  RH  050%=      5-min Rain = 0
KEN1 181044Z 21013KT 16/06 A2975 RMK A01 T01590057  RH  050%=      5-min Rain = 0
KEN1 181045Z 21014KT 16/06 A2975 RMK A01 T01590057  RH  051%=      5-min Rain = 0
KEN1 181046Z 22015G21KT 16/06 A2975 RMK A01 T01580057  RH  051%=      5-min Rain = 0
KEN1 181047Z 21015KT 16/06 A2975 RMK A01 T01580057  RH  051%=      5-min Rain = 0
KEN1 181048Z 21014KT 16/06 A2975 RMK A01 T01570057  RH  051%=      5-min Rain = 0
KEN1 181049Z 21014KT 16/06 A2975 RMK A01 T01570057  RH  051%=      5-min Rain = 0
KEN1 181050Z 21015KT 16/06 A2975 RMK A01 T01570058  RH  052%=      5-min Rain = 0
KEN1 181051Z 21014KT 16/06 A2975 RMK A01 T01570058  RH  052%=      5-min Rain = 0
KEN1 181052Z 21013KT 16/06 A2975 RMK A01 T01560057  RH  052%=      5-min Rain = 0
KEN1 181053Z 21015KT 16/06 A2975 RMK A01 T01570058  RH  052%=      5-min Rain = 0
KEN1 181054Z 21015G20KT 16/06 A2976 RMK A01 T01570058  RH  052%=      5-min Rain = 0
KEN1 181055Z 21016KT 16/06 A2976 RMK A01 T01560058  RH  052%=      5-min Rain = 0
KEN1 181056Z 22015KT 16/06 A2976 RMK A01 T01570058  RH  052%=      5-min Rain = 0
KEN1 181057Z 21014KT 16/06 A2976 RMK A01 T01560058  RH  052%=      5-min Rain = 0
KEN1 181058Z 21013KT 16/06 A2976 RMK A01 T01560058  RH  052%=      5-min Rain = 0
KEN1 181059Z 21015KT 16/06 A2976 RMK A01 T01550058  RH  052%=      5-min Rain = 0
KEN1 181100Z 21013KT 16/06 A2976 RMK A01 T01550058  RH  052%=      5-min Rain = 0
KEN1 181101Z 21014KT 16/06 A2976 RMK A01 T01550058  RH  052%=      5-min Rain = 0
KEN1 181102Z 21014KT 16/06 A2976 RMK A01 T01550058  RH  052%=      5-min Rain = 0
KEN1 181103Z 21015KT 16/06 A2976 RMK A01 T01550058  RH  053%=      5-min Rain = 0
KEN1 181104Z 21016KT 16/06 A2976 RMK A01 T01550058  RH  052%=      5-min Rain = 0
KEN1 181105Z 21013KT 16/06 A2976 RMK A01 T01560058  RH  052%=      5-min Rain = 0
KEN1 181106Z 21014KT 16/06 A2976 RMK A01 T01550058  RH  053%=      5-min Rain = 0
KEN1 181107Z 21013KT 15/06 A2976 RMK A01 T01540059  RH  053%=      5-min Rain = 0
KEN1 181108Z 21013KT 15/06 A2976 RMK A01 T01540058  RH  053%=      5-min Rain = 0
KEN1 181109Z 21012KT 15/06 A2976 RMK A01 T01530059  RH  053%=      5-min Rain = 0
KEN1 181110Z 22011KT 15/06 A2976 RMK A01 T01530058  RH  053%=      5-min Rain = 0
KEN1 181111Z 21010KT 15/06 A2976 RMK A01 T01520059  RH  054%=      5-min Rain = 0
KEN1 181112Z 22011KT 15/06 A2976 RMK A01 T01510059  RH  054%=      5-min Rain = 0
KEN1 181113Z 22011KT 15/06 A2976 RMK A01 T01500058  RH  054%=      5-min Rain = 0
KEN1 181114Z 22010KT 15/06 A2976 RMK A01 T01500058  RH  054%=      5-min Rain = 0
KEN1 181115Z 22010KT 15/06 A2976 RMK A01 T01490058  RH  055%=      5-min Rain = 0
KEN1 181116Z 23010KT 15/06 A2976 RMK A01 T01480058  RH  055%=      5-min Rain = 0
KEN1 181117Z 23010KT 15/06 A2976 RMK A01 T01480058  RH  055%=      5-min Rain = 0
KEN1 181118Z 23009KT 15/06 A2976 RMK A01 T01470058  RH  055%=      5-min Rain = 0
KEN1 181119Z 23008KT 15/06 A2976 RMK A01 T01460058  RH  056%=      5-min Rain = 0
KEN1 181120Z 23008KT 14/06 A2976 RMK A01 T01430057  RH  056%=      5-min Rain = 0
KEN1 181121Z 23009KT 14/06 A2976 RMK A01 T01420057  RH  057%=      5-min Rain = 0
KEN1 181122Z 23009KT 14/06 A2976 RMK A01 T01410057  RH  057%=      5-min Rain = 0
KEN1 181123Z 23009KT 14/06 A2976 RMK A01 T01400057  RH  057%=      5-min Rain = 0
KEN1 181124Z 22010KT 14/06 A2976 RMK A01 T01390057  RH  058%=      5-min Rain = 0
KEN1 181125Z 22010KT 14/06 A2976 RMK A01 T01380057  RH  058%=      5-min Rain = 0
KEN1 181126Z 22011KT 14/06 A2976 RMK A01 T01380057  RH  058%=      5-min Rain = 0
KEN1 181127Z 22011KT 14/06 A2976 RMK A01 T01380058  RH  058%=      5-min Rain = 0
KEN1 181128Z 22010KT 14/06 A2976 RMK A01 T01380057  RH  058%=      5-min Rain = 0
KEN1 181129Z 22010KT 14/06 A2976 RMK A01 T01380057  RH  058%=      5-min Rain = 0
KEN1 181130Z 22009KT 14/06 A2976 RMK A01 T01380058  RH  058%=      5-min Rain = 0
KEN1 181131Z 22009KT 14/06 A2976 RMK A01 T01370058  RH  058%=      5-min Rain = 0
KEN1 181132Z 22010KT 14/06 A2976 RMK A01 T01370057  RH  059%=      5-min Rain = 0
KEN1 181133Z 22011KT 14/06 A2976 RMK A01 T01370058  RH  059%=      5-min Rain = 0
KEN1 181134Z 22009KT 14/06 A2976 RMK A01 T01380058  RH  058%=      5-min Rain = 0
KEN1 181135Z 22010KT 14/06 A2976 RMK A01 T01380058  RH  058%=      5-min Rain = 0
KEN1 181136Z 22009KT 14/06 A2976 RMK A01 T01380058  RH  059%=      5-min Rain = 0
KEN1 181137Z 23009KT 14/06 A2976 RMK A01 T01370058  RH  059%=      5-min Rain = 0
KEN1 181138Z 22009KT 14/06 A2976 RMK A01 T01370058  RH  059%=      5-min Rain = 0
KEN1 181139Z 22008KT 14/06 A2976 RMK A01 T01370058  RH  059%=      5-min Rain = 0
KEN1 181140Z 22009KT 14/06 A2976 RMK A01 T01360058  RH  059%=      5-min Rain = 0
KEN1 181141Z 21010KT 14/06 A2976 RMK A01 T01360058  RH  059%=      5-min Rain = 0
KEN1 181142Z 22009KT 14/06 A2976 RMK A01 T01350058  RH  059%=      5-min Rain = 0
KEN1 181143Z 21010KT 14/06 A2976 RMK A01 T01350058  RH  060%=      5-min Rain = 0
KEN1 181144Z 22009KT 14/06 A2976 RMK A01 T01350058  RH  060%=      5-min Rain = 0
KEN1 181145Z 22011KT 14/06 A2976 RMK A01 T01350058  RH  060%=      5-min Rain = 0
KEN1 181146Z 22009KT 14/06 A2976 RMK A01 T01370059  RH  059%=      5-min Rain = 0
KEN1 181147Z 22009KT 14/06 A2976 RMK A01 T01370059  RH  059%=      5-min Rain = 0
KEN1 181148Z 23009KT 14/06 A2976 RMK A01 T01360058  RH  059%=      5-min Rain = 0
KEN1 181149Z 23009KT 14/06 A2976 RMK A01 T01360059  RH  059%=      5-min Rain = 0
KEN1 181150Z 23009KT 14/06 A2976 RMK A01 T01360058  RH  059%=      5-min Rain = 0
KEN1 181151Z 23009KT 14/06 A2977 RMK A01 T01350058  RH  060%=      5-min Rain = 0
KEN1 181152Z 23008KT 14/06 A2977 RMK A01 T01350058  RH  060%=      5-min Rain = 0
KEN1 181153Z 23009KT 14/06 A2977 RMK A01 T01350058  RH  060%=      5-min Rain = 0
KEN1 181154Z 23009KT 14/06 A2977 RMK A01 T01350058  RH  060%=      5-min Rain = 0
KEN1 181155Z 23010KT 13/06 A2977 RMK A01 T01340058  RH  060%=      5-min Rain = 0
KEN1 181156Z 23010KT 13/06 A2977 RMK A01 T01340059  RH  060%=      5-min Rain = 0
KEN1 181157Z 23010KT 14/06 A2977 RMK A01 T01350059  RH  060%=      5-min Rain = 0
KEN1 181158Z 23011KT 14/06 A2977 RMK A01 T01350059  RH  060%=      5-min Rain = 0
KEN1 181159Z 23010KT 14/06 A2977 RMK A01 T01350059  RH  060%=      5-min Rain = 0
KEN1 181200Z 23009KT 14/06 A2977 RMK A01 T01360059  RH  060%=      5-min Rain = 0
KEN1 181201Z 23010KT 14/06 A2977 RMK A01 T01350059  RH  060%=      5-min Rain = 0
KEN1 181202Z 23010KT 14/06 A2977 RMK A01 T01350059  RH  060%=      5-min Rain = 0
KEN1 181203Z 23012KT 14/06 A2977 RMK A01 T01360059  RH  060%=      5-min Rain = 0
KEN1 181204Z 22013KT 14/06 A2977 RMK A01 T01360060  RH  060%=      5-min Rain = 0
KEN1 181205Z 22013KT 14/06 A2977 RMK A01 T01380060  RH  059%=      5-min Rain = 0
KEN1 181206Z 22013KT 14/06 A2977 RMK A01 T01380060  RH  059%=      5-min Rain = 0
KEN1 181207Z 22013KT 14/06 A2976 RMK A01 T01380060  RH  059%=      5-min Rain = 0
KEN1 181208Z 22013KT 14/06 A2976 RMK A01 T01380060  RH  059%=      5-min Rain = 0
KEN1 181209Z 22013KT 14/06 A2976 RMK A01 T01390060  RH  059%=      5-min Rain = 0
KEN1 181210Z 22014KT 14/06 A2977 RMK A01 T01390060  RH  059%=      5-min Rain = 0
KEN1 181211Z 22013KT 14/06 A2977 RMK A01 T01400061  RH  059%=      5-min Rain = 0
KEN1 181212Z 22013KT 14/06 A2977 RMK A01 T01400061  RH  059%=      5-min Rain = 0
KEN1 181213Z 22013KT 14/06 A2977 RMK A01 T01400061  RH  059%=      5-min Rain = 0
KEN1 181214Z 22015KT 14/06 A2977 RMK A01 T01390061  RH  059%=      5-min Rain = 0
KEN1 181215Z 22014KT 14/06 A2977 RMK A01 T01400061  RH  059%=      5-min Rain = 0
KEN1 181216Z 22015KT 14/06 A2977 RMK A01 T01410061  RH  059%=      5-min Rain = 0
KEN1 181217Z 22017KT 14/06 A2977 RMK A01 T01410061  RH  059%=      5-min Rain = 0
KEN1 181218Z 22016KT 14/06 A2976 RMK A01 T01430062  RH  058%=      5-min Rain = 0
KEN1 181219Z 22015KT 14/06 A2977 RMK A01 T01440062  RH  058%=      5-min Rain = 0
KEN1 181220Z 22013KT 14/06 A2977 RMK A01 T01440061  RH  058%=      5-min Rain = 0
KEN1 181221Z 22013KT 14/06 A2977 RMK A01 T01430061  RH  058%=      5-min Rain = 0
KEN1 181222Z 22014KT 14/06 A2977 RMK A01 T01420062  RH  058%=      5-min Rain = 0
KEN1 181223Z 21012KT 14/06 A2976 RMK A01 T01400061  RH  059%=      5-min Rain = 0
KEN1 181224Z 21013KT 14/06 A2976 RMK A01 T01400061  RH  059%=      5-min Rain = 0
KEN1 181225Z 22012KT 14/06 A2976 RMK A01 T01390061  RH  059%=      5-min Rain = 0
KEN1 181226Z 21011KT 14/06 A2977 RMK A01 T01380061  RH  060%=      5-min Rain = 0
KEN1 181227Z 21012KT 14/06 A2976 RMK A01 T01380061  RH  060%=      5-min Rain = 0
KEN1 181228Z 21010KT 14/06 A2977 RMK A01 T01380061  RH  060%=      5-min Rain = 0
KEN1 181229Z 22012KT 14/06 A2977 RMK A01 T01370061  RH  060%=      5-min Rain = 0
KEN1 181230Z 21011KT 14/06 A2977 RMK A01 T01360061  RH  060%=      5-min Rain = 0
KEN1 181231Z 21012KT 14/06 A2977 RMK A01 T01360061  RH  060%=      5-min Rain = 0
KEN1 181232Z 21012KT 14/06 A2977 RMK A01 T01350061  RH  061%=      5-min Rain = 0
KEN1 181233Z 22011KT 14/06 A2977 RMK A01 T01350061  RH  061%=      5-min Rain = 0
KEN1 181234Z 22011KT 13/06 A2977 RMK A01 T01340061  RH  061%=      5-min Rain = 0
KEN1 181235Z 22010KT 13/06 A2977 RMK A01 T01340061  RH  061%=      5-min Rain = 0
KEN1 181236Z 22009KT 13/06 A2977 RMK A01 T01330061  RH  061%=      5-min Rain = 0
KEN1 181237Z 22010KT 13/06 A2977 RMK A01 T01330061  RH  062%=      5-min Rain = 0
KEN1 181238Z 21010KT 13/06 A2977 RMK A01 T01320061  RH  062%=      5-min Rain = 0
KEN1 181239Z 21009KT 13/06 A2977 RMK A01 T01310061  RH  062%=      5-min Rain = 0
KEN1 181240Z 22008KT 13/06 A2977 RMK A01 T01310061  RH  062%=      5-min Rain = 0
KEN1 181241Z 21008KT 13/06 A2977 RMK A01 T01300061  RH  063%=      5-min Rain = 0
KEN1 181242Z 21008KT 13/06 A2977 RMK A01 T01290061  RH  063%=      5-min Rain = 0
KEN1 181243Z 22008KT 13/06 A2977 RMK A01 T01280061  RH  064%=      5-min Rain = 0
KEN1 181244Z 21008KT 13/06 A2977 RMK A01 T01280061  RH  064%=      5-min Rain = 0
KEN1 181245Z 21007KT 13/06 A2977 RMK A01 T01280061  RH  064%=      5-min Rain = 0
KEN1 181246Z 21007KT 13/06 A2977 RMK A01 T01270061  RH  064%=      5-min Rain = 0
KEN1 181247Z 21006KT 13/06 A2977 RMK A01 T01260060  RH  064%=      5-min Rain = 0
KEN1 181248Z 20006KT 13/06 A2977 RMK A01 T01250060  RH  065%=      5-min Rain = 0
KEN1 181249Z 20006KT 12/06 A2977 RMK A01 T01240060  RH  065%=      5-min Rain = 0
KEN1 181250Z 20007KT 12/06 A2977 RMK A01 T01230060  RH  066%=      5-min Rain = 0
KEN1 181251Z 21007KT 12/06 A2977 RMK A01 T01240061  RH  066%=      5-min Rain = 0
KEN1 181252Z 21007KT 13/06 A2977 RMK A01 T01290064  RH  065%=      5-min Rain = 0
KEN1 181253Z 19007KT 13/06 A2977 RMK A01 T01330064  RH  063%=      5-min Rain = 0
KEN1 181254Z 19006KT 13/06 A2977 RMK A01 T01330062  RH  062%=      5-min Rain = 0
KEN1 181255Z 19006KT 13/06 A2977 RMK A01 T01300061  RH  063%=      5-min Rain = 0
KEN1 181256Z 22007KT 13/06 A2976 RMK A01 T01290062  RH  064%=      5-min Rain = 0
KEN1 181257Z 22007KT 13/06 A2976 RMK A01 T01300062  RH  063%=      5-min Rain = 0
KEN1 181258Z 22008KT 13/06 A2976 RMK A01 T01300062  RH  064%=      5-min Rain = 0
KEN1 181259Z 22009KT 13/06 A2976 RMK A01 T01320064  RH  063%=      5-min Rain = 0
KEN1 181300Z 21011KT 13/07 A2976 RMK A01 T01340065  RH  063%=      5-min Rain = 0
KEN1 181301Z 22010KT 14/07 A2976 RMK A01 T01360066  RH  063%=      5-min Rain = 0
KEN1 181302Z 22009KT 14/07 A2976 RMK A01 T01370066  RH  063%=      5-min Rain = 0
KEN1 181303Z 22009KT 14/07 A2976 RMK A01 T01370067  RH  063%=      5-min Rain = 0
KEN1 181304Z 21010KT 14/07 A2976 RMK A01 T01370068  RH  063%=      5-min Rain = 0
KEN1 181305Z 22010KT 14/07 A2976 RMK A01 T01370068  RH  063%=      5-min Rain = 0
KEN1 181306Z 21010KT 14/07 A2976 RMK A01 T01380069  RH  063%=      5-min Rain = 0
KEN1 181307Z 21009KT 14/07 A2976 RMK A01 T01380069  RH  063%=      5-min Rain = 0
KEN1 181308Z 21009KT 14/07 A2976 RMK A01 T01390069  RH  063%=      5-min Rain = 0
KEN1 181309Z 21007KT 14/07 A2976 RMK A01 T01390070  RH  063%=      5-min Rain = 0
KEN1 181310Z 21008KT 14/07 A2976 RMK A01 T01370069  RH  063%=      5-min Rain = 0
KEN1 181311Z 21006KT 14/07 A2976 RMK A01 T01360068  RH  063%=      5-min Rain = 0
KEN1 181312Z 20007KT 14/07 A2976 RMK A01 T01350066  RH  063%=      5-min Rain = 0
KEN1 181313Z 21007KT 13/07 A2976 RMK A01 T01340066  RH  064%=      5-min Rain = 0
KEN1 181314Z 21007KT 13/07 A2976 RMK A01 T01330067  RH  064%=      5-min Rain = 0
KEN1 181315Z 21007KT 13/07 A2976 RMK A01 T01330067  RH  064%=      5-min Rain = 0
KEN1 181316Z 20007KT 13/07 A2976 RMK A01 T01330068  RH  065%=      5-min Rain = 0
KEN1 181317Z 20006KT 13/07 A2976 RMK A01 T01330068  RH  065%=      5-min Rain = 0
KEN1 181318Z 19007KT 13/07 A2976 RMK A01 T01340068  RH  064%=      5-min Rain = 0
KEN1 181319Z 20006KT 14/07 A2976 RMK A01 T01350069  RH  064%=      5-min Rain = 0
KEN1 181320Z 19006KT 14/07 A2976 RMK A01 T01350069  RH  064%=      5-min Rain = 0
KEN1 181321Z 20006KT 14/07 A2976 RMK A01 T01350069  RH  064%=      5-min Rain = 0
KEN1 181322Z 20006KT 14/07 A2976 RMK A01 T01350069  RH  064%=      5-min Rain = 0
KEN1 181323Z 20006KT 14/07 A2976 RMK A01 T01350070  RH  064%=      5-min Rain = 0
KEN1 181324Z 20006KT 14/07 A2976 RMK A01 T01360070  RH  064%=      5-min Rain = 0
KEN1 181325Z 20006KT 14/07 A2976 RMK A01 T01370070  RH  064%=      5-min Rain = 0
KEN1 181326Z 20006KT 14/07 A2976 RMK A01 T01370071  RH  064%=      5-min Rain = 0
KEN1 181327Z 20006KT 14/07 A2976 RMK A01 T01380071  RH  064%=      5-min Rain = 0
KEN1 181328Z 19007KT 14/07 A2976 RMK A01 T01390072  RH  064%=      5-min Rain = 0
KEN1 181329Z 20007KT 14/07 A2976 RMK A01 T01410073  RH  064%=      5-min Rain = 0
KEN1 181330Z 19006KT 14/07 A2976 RMK A01 T01420073  RH  063%=      5-min Rain = 0
KEN1 181331Z 19007KT 14/07 A2976 RMK A01 T01440074  RH  063%=      5-min Rain = 0
KEN1 181332Z 19008KT 14/07 A2976 RMK A01 T01440074  RH  063%=      5-min Rain = 0
KEN1 181333Z 18008KT 15/07 A2976 RMK A01 T01450074  RH  063%=      5-min Rain = 0
KEN1 181334Z 18008KT 15/07 A2976 RMK A01 T01450074  RH  062%=      5-min Rain = 0
KEN1 181335Z 18008KT 15/07 A2976 RMK A01 T01450074  RH  063%=      5-min Rain = 0
KEN1 181336Z 19008KT 15/08 A2976 RMK A01 T01450075  RH  063%=      5-min Rain = 0
KEN1 181337Z 19009KT 15/08 A2976 RMK A01 T01470075  RH  062%=      5-min Rain = 0
KEN1 181338Z 20007KT 15/08 A2977 RMK A01 T01470075  RH  062%=      5-min Rain = 0
KEN1 181339Z 20007KT 15/08 A2977 RMK A01 T01480076  RH  062%=      5-min Rain = 0
KEN1 181340Z 20008KT 15/08 A2977 RMK A01 T01480076  RH  062%=      5-min Rain = 0
KEN1 181341Z 21008KT 15/08 A2977 RMK A01 T01480076  RH  062%=      5-min Rain = 0
KEN1 181342Z 21006KT 15/08 A2977 RMK A01 T01480077  RH  062%=      5-min Rain = 0
KEN1 181343Z 22008KT 15/08 A2977 RMK A01 T01480077  RH  062%=      5-min Rain = 0
KEN1 181344Z 22009KT 15/08 A2977 RMK A01 T01490078  RH  062%=      5-min Rain = 0
KEN1 181345Z 22008KT 15/08 A2977 RMK A01 T01510079  RH  062%=      5-min Rain = 0
KEN1 181346Z 22008KT 15/08 A2977 RMK A01 T01540080  RH  061%=      5-min Rain = 0
KEN1 181347Z 23010KT 16/08 A2977 RMK A01 T01570080  RH  060%=      5-min Rain = 0
KEN1 181348Z 22008KT 16/08 A2977 RMK A01 T01590080  RH  059%=      5-min Rain = 0
KEN1 181349Z 22010KT 16/08 A2977 RMK A01 T01600080  RH  059%=      5-min Rain = 0
KEN1 181350Z 23010KT 16/08 A2977 RMK A01 T01610080  RH  059%=      5-min Rain = 0
KEN1 181351Z 23011G16KT 16/08 A2977 RMK A01 T01610080  RH  058%=      5-min Rain = 0
KEN1 181352Z 22012KT 16/08 A2977 RMK A01 T01630079  RH  058%=      5-min Rain = 0
KEN1 181353Z 23012KT 16/08 A2977 RMK A01 T01630079  RH  057%=      5-min Rain = 0
KEN1 181354Z 23011KT 16/08 A2977 RMK A01 T01640079  RH  057%=      5-min Rain = 0
KEN1 181355Z 23013KT 16/08 A2977 RMK A01 T01640079  RH  057%=      5-min Rain = 0
KEN1 181356Z 22011KT 17/08 A2977 RMK A01 T01650079  RH  057%=      5-min Rain = 0
KEN1 181357Z 22012KT 17/08 A2977 RMK A01 T01650079  RH  057%=      5-min Rain = 0
KEN1 181358Z 22012KT 17/08 A2977 RMK A01 T01650080  RH  057%=      5-min Rain = 0
KEN1 181359Z 23012KT 17/08 A2977 RMK A01 T01660080  RH  057%=      5-min Rain = 0
KEN1 181400Z 23011KT 17/08 A2977 RMK A01 T01670080  RH  057%=      5-min Rain = 0
KEN1 181401Z 23011KT 17/08 A2977 RMK A01 T01670080  RH  056%=      5-min Rain = 0
KEN1 181402Z 22013KT 17/08 A2977 RMK A01 T01680081  RH  056%=      5-min Rain = 0
KEN1 181403Z 22012KT 17/08 A2977 RMK A01 T01680080  RH  056%=      5-min Rain = 0
KEN1 181404Z 22013KT 17/08 A2977 RMK A01 T01690080  RH  056%=      5-min Rain = 0
KEN1 181405Z 23011KT 17/08 A2977 RMK A01 T01690080  RH  056%=      5-min Rain = 0
KEN1 181406Z 23009KT 17/08 A2977 RMK A01 T01700081  RH  056%=      5-min Rain = 0
KEN1 181407Z 23013KT 17/08 A2977 RMK A01 T01700080  RH  055%=      5-min Rain = 0
KEN1 181408Z 23013KT 17/08 A2977 RMK A01 T01700080  RH  055%=      5-min Rain = 0
KEN1 181409Z 23014KT 17/08 A2977 RMK A01 T01700079  RH  055%=      5-min Rain = 0
KEN1 181410Z 23012KT 17/08 A2977 RMK A01 T01700079  RH  055%=      5-min Rain = 0
KEN1 181411Z 22013KT 17/08 A2977 RMK A01 T01710080  RH  055%=      5-min Rain = 0
KEN1 181412Z 22012KT 17/08 A2977 RMK A01 T01710080  RH  055%=      5-min Rain = 0
KEN1 181413Z 22012KT 17/08 A2977 RMK A01 T01710080  RH  055%=      5-min Rain = 0
KEN1 181414Z 23013KT 17/08 A2977 RMK A01 T01720081  RH  055%=      5-min Rain = 0
KEN1 181415Z 22010KT 17/08 A2977 RMK A01 T01730081  RH  055%=      5-min Rain = 0
KEN1 181416Z 22014KT 17/08 A2977 RMK A01 T01740081  RH  054%=      5-min Rain = 0
KEN1 181417Z 22013KT 17/08 A2977 RMK A01 T01740081  RH  054%=      5-min Rain = 0
KEN1 181418Z 23011KT 17/08 A2977 RMK A01 T01740081  RH  054%=      5-min Rain = 0
KEN1 181419Z 23009KT 18/08 A2977 RMK A01 T01750082  RH  054%=      5-min Rain = 0
KEN1 181420Z 23010KT 18/08 A2977 RMK A01 T01760084  RH  055%=      5-min Rain = 0
KEN1 181421Z 24012KT 18/08 A2977 RMK A01 T01770083  RH  054%=      5-min Rain = 0
KEN1 181422Z 24014KT 18/08 A2977 RMK A01 T01780081  RH  053%=      5-min Rain = 0
KEN1 181423Z 24014KT 18/08 A2977 RMK A01 T01780082  RH  053%=      5-min Rain = 0
KEN1 181424Z 24012G17KT 18/08 A2977 RMK A01 T01780081  RH  053%=      5-min Rain = 0
KEN1 181425Z 25012KT 18/08 A2977 RMK A01 T01780082  RH  053%=      5-min Rain = 0
KEN1 181426Z 25008KT 18/08 A2977 RMK A01 T01780082  RH  053%=      5-min Rain = 0
KEN1 181427Z 24009KT 18/08 A2977 RMK A01 T01770082  RH  054%=      5-min Rain = 0
KEN1 181428Z 27007KT 18/08 A2977 RMK A01 T01760082  RH  054%=      5-min Rain = 0
KEN1 181429Z 26006KT 17/08 A2977 RMK A01 T01740081  RH  054%=      5-min Rain = 0
KEN1 181430Z 26007KT 17/08 A2978 RMK A01 T01740083  RH  055%=      5-min Rain = 0
KEN1 181431Z 26007KT 17/08 A2978 RMK A01 T01740083  RH  055%=      5-min Rain = 0
KEN1 181432Z 26006KT 17/08 A2978 RMK A01 T01740083  RH  055%=      5-min Rain = 0
KEN1 181433Z 26008KT 17/08 A2978 RMK A01 T01740082  RH  055%=      5-min Rain = 0
KEN1 181434Z 27007KT 17/08 A2978 RMK A01 T01740081  RH  054%=      5-min Rain = 0
KEN1 181435Z 27007KT 17/08 A2978 RMK A01 T01720082  RH  055%=      5-min Rain = 0
KEN1 181436Z 26006KT 17/08 A2978 RMK A01 T01720082  RH  055%=      5-min Rain = 0
KEN1 181437Z 25009KT 17/08 A2978 RMK A01 T01730082  RH  055%=      5-min Rain = 0
KEN1 181438Z 25008KT 17/08 A2978 RMK A01 T01730082  RH  055%=      5-min Rain = 0
KEN1 181439Z 25007KT 17/08 A2978 RMK A01 T01730082  RH  055%=      5-min Rain = 0
KEN1 181440Z 25008KT 17/08 A2978 RMK A01 T01720082  RH  055%=      5-min Rain = 0
KEN1 181441Z 25008KT 17/08 A2978 RMK A01 T01700082  RH  056%=      5-min Rain = 0
KEN1 181442Z 24009KT 17/08 A2978 RMK A01 T01690081  RH  056%=      5-min Rain = 0
KEN1 181443Z 24007KT 17/08 A2978 RMK A01 T01700082  RH  056%=      5-min Rain = 0
KEN1 181444Z 24007KT 17/08 A2978 RMK A01 T01700082  RH  056%=      5-min Rain = 0
KEN1 181445Z 24009KT 17/08 A2978 RMK A01 T01710082  RH  056%=      5-min Rain = 0
KEN1 181446Z 25008KT 17/08 A2978 RMK A01 T01710082  RH  056%=      5-min Rain = 0
KEN1 181447Z 24008KT 17/08 A2978 RMK A01 T01730083  RH  055%=      5-min Rain = 0
KEN1 181448Z 24007KT 18/08 A2978 RMK A01 T01750083  RH  055%=      5-min Rain = 0
KEN1 181449Z 23007KT 18/08 A2978 RMK A01 T01760084  RH  055%=      5-min Rain = 0
KEN1 181450Z 24007KT 18/08 A2978 RMK A01 T01770084  RH  054%=      5-min Rain = 0
KEN1 181451Z 23009KT 18/08 A2978 RMK A01 T01760083  RH  054%=      5-min Rain = 0
KEN1 181452Z 23009KT 17/08 A2978 RMK A01 T01740082  RH  055%=      5-min Rain = 0
KEN1 181453Z 24008KT 17/08 A2978 RMK A01 T01720082  RH  055%=      5-min Rain = 0
KEN1 181454Z 24007KT 17/08 A2978 RMK A01 T01720083  RH  056%=      5-min Rain = 0
KEN1 181455Z 24008KT 17/08 A2978 RMK A01 T01740083  RH  055%=      5-min Rain = 0
KEN1 181456Z 24007KT 18/08 A2978 RMK A01 T01760083  RH  055%=      5-min Rain = 0
KEN1 181457Z 24007KT 18/08 A2978 RMK A01 T01770083  RH  054%=      5-min Rain = 0
KEN1 181458Z 22007KT 18/08 A2978 RMK A01 T01780084  RH  054%=      5-min Rain = 0
KEN1 181459Z 24007KT 18/09 A2978 RMK A01 T01800086  RH  054%=      5-min Rain = 0
KEN1 181500Z 23007KT 18/09 A2978 RMK A01 T01820086  RH  054%=      5-min Rain = 0
KEN1 181501Z 23009KT 18/09 A2978 RMK A01 T01830085  RH  053%=      5-min Rain = 0
KEN1 181502Z 23010KT 18/08 A2978 RMK A01 T01830084  RH  052%=      5-min Rain = 0
KEN1 181503Z 22009KT 18/09 A2978 RMK A01 T01840085  RH  053%=      5-min Rain = 0
KEN1 181504Z 22014KT 19/09 A2977 RMK A01 T01860086  RH  052%=      5-min Rain = 0
KEN1 181505Z 23013KT 19/09 A2978 RMK A01 T01880085  RH  051%=      5-min Rain = 0
KEN1 181506Z 23012KT 19/09 A2978 RMK A01 T01890085  RH  051%=      5-min Rain = 0
KEN1 181507Z 24011KT 19/09 A2977 RMK A01 T01900086  RH  051%=      5-min Rain = 0
KEN1 181508Z 23011KT 19/09 A2978 RMK A01 T01910086  RH  050%=      5-min Rain = 0
KEN1 181509Z 23010KT 19/09 A2977 RMK A01 T01920087  RH  051%=      5-min Rain = 0
KEN1 181510Z 23012KT 19/09 A2977 RMK A01 T01940087  RH  050%=      5-min Rain = 0
KEN1 181511Z 23011KT 20/09 A2977 RMK A01 T01950089  RH  050%=      5-min Rain = 0
KEN1 181512Z 22010KT 20/09 A2977 RMK A01 T01970089  RH  049%=      5-min Rain = 0
KEN1 181513Z 23013KT 20/09 A2977 RMK A01 T01980088  RH  049%=      5-min Rain = 0
KEN1 181514Z 22013KT 20/09 A2977 RMK A01 T01990087  RH  049%=      5-min Rain = 0
KEN1 181515Z 22014KT 20/09 A2977 RMK A01 T01990087  RH  048%=      5-min Rain = 0
KEN1 181516Z 22014KT 20/09 A2977 RMK A01 T01990087  RH  048%=      5-min Rain = 0
KEN1 181517Z 22015KT 20/09 A2977 RMK A01 T01970086  RH  049%=      5-min Rain = 0
KEN1 181518Z 23014KT 20/09 A2977 RMK A01 T01970086  RH  049%=      5-min Rain = 0
KEN1 181519Z 22012KT 20/09 A2977 RMK A01 T01970087  RH  049%=      5-min Rain = 0
KEN1 181520Z 22013KT 20/09 A2977 RMK A01 T01980088  RH  049%=      5-min Rain = 0
KEN1 181521Z 22013KT 20/09 A2977 RMK A01 T01990089  RH  049%=      5-min Rain = 0
KEN1 181522Z 22013KT 20/09 A2977 RMK A01 T02000089  RH  049%=      5-min Rain = 0
KEN1 181523Z 23014KT 20/09 A2977 RMK A01 T02010088  RH  048%=      5-min Rain = 0
KEN1 181524Z 23013KT 20/09 A2977 RMK A01 T02000087  RH  048%=      5-min Rain = 0
KEN1 181525Z 22012KT 20/09 A2977 RMK A01 T02000089  RH  049%=      5-min Rain = 0
KEN1 181526Z 22014KT 20/09 A2977 RMK A01 T02010088  RH  048%=      5-min Rain = 0
KEN1 181527Z 22014KT 20/09 A2977 RMK A01 T02020088  RH  048%=      5-min Rain = 0
KEN1 181528Z 22014KT 20/09 A2977 RMK A01 T02020087  RH  048%=      5-min Rain = 0
KEN1 181529Z 22012KT 20/09 A2977 RMK A01 T02020089  RH  048%=      5-min Rain = 0
KEN1 181530Z 22012KT 20/09 A2977 RMK A01 T02030089  RH  048%=      5-min Rain = 0
KEN1 181531Z 22011KT 20/09 A2977 RMK A01 T02040090  RH  048%=      5-min Rain = 0
KEN1 181532Z 23012KT 21/09 A2977 RMK A01 T02050089  RH  047%=      5-min Rain = 0
KEN1 181533Z 22012KT 21/09 A2977 RMK A01 T02050089  RH  047%=      5-min Rain = 0
KEN1 181534Z 21013KT 21/09 A2977 RMK A01 T02060090  RH  047%=      5-min Rain = 0
KEN1 181535Z 22012KT 21/09 A2977 RMK A01 T02060089  RH  047%=      5-min Rain = 0
KEN1 181536Z 22012KT 21/09 A2977 RMK A01 T02070089  RH  047%=      5-min Rain = 0
KEN1 181537Z 22012KT 21/09 A2977 RMK A01 T02070088  RH  046%=      5-min Rain = 0
KEN1 181538Z 22011KT 21/09 A2977 RMK A01 T02070090  RH  047%=      5-min Rain = 0
KEN1 181539Z 22012KT 21/09 A2977 RMK A01 T02080089  RH  046%=      5-min Rain = 0
KEN1 181540Z 22011KT 21/09 A2977 RMK A01 T02080089  RH  046%=      5-min Rain = 0
KEN1 181541Z 22011KT 21/09 A2977 RMK A01 T02090090  RH  046%=      5-min Rain = 0
KEN1 181542Z 21013KT 21/09 A2977 RMK A01 T02090089  RH  046%=      5-min Rain = 0
KEN1 181543Z 21012KT 21/09 A2977 RMK A01 T02100091  RH  046%=      5-min Rain = 0
KEN1 181544Z 22013KT 21/09 A2977 RMK A01 T02100088  RH  046%=      5-min Rain = 0
KEN1 181545Z 21012KT 21/09 A2976 RMK A01 T02100088  RH  046%=      5-min Rain = 0
KEN1 181546Z 21012KT 21/09 A2977 RMK A01 T02100090  RH  046%=      5-min Rain = 0
KEN1 181547Z 22011KT 21/09 A2977 RMK A01 T02100089  RH  046%=      5-min Rain = 0
KEN1 181548Z 22012KT 21/09 A2976 RMK A01 T02110090  RH  046%=      5-min Rain = 0
KEN1 181549Z 22012KT 21/09 A2976 RMK A01 T02120090  RH  046%=      5-min Rain = 0
KEN1 181550Z 22012KT 21/09 A2976 RMK A01 T02120090  RH  045%=      5-min Rain = 0
KEN1 181551Z 21012KT 21/09 A2976 RMK A01 T02140091  RH  045%=      5-min Rain = 0
KEN1 181552Z 21014KT 21/09 A2976 RMK A01 T02140089  RH  045%=      5-min Rain = 0
KEN1 181553Z 22014KT 21/09 A2976 RMK A01 T02140089  RH  045%=      5-min Rain = 0
KEN1 181554Z 21013KT 22/09 A2976 RMK A01 T02150089  RH  045%=      5-min Rain = 0
KEN1 181555Z 21014KT 22/09 A2976 RMK A01 T02150089  RH  044%=      5-min Rain = 0
KEN1 181556Z 21012KT 22/09 A2976 RMK A01 T02160090  RH  045%=      5-min Rain = 0
KEN1 181557Z 22013KT 22/09 A2976 RMK A01 T02170092  RH  045%=      5-min Rain = 0
KEN1 181558Z 22013KT 22/09 A2976 RMK A01 T02180092  RH  044%=      5-min Rain = 0
KEN1 181559Z 23014G19KT 22/09 A2976 RMK A01 T02200091  RH  044%=      5-min Rain = 0
KEN1 181600Z 22012KT 22/09 A2976 RMK A01 T02200092  RH  044%=      5-min Rain = 0
KEN1 181601Z 22012KT 22/09 A2976 RMK A01 T02210094  RH  044%=      5-min Rain = 0
KEN1 181602Z 22015KT 22/10 A2976 RMK A01 T02240095  RH  044%=      5-min Rain = 0
KEN1 181603Z 22015KT 22/09 A2976 RMK A01 T02240093  RH  043%=      5-min Rain = 0
KEN1 181604Z 21015KT 22/09 A2976 RMK A01 T02230094  RH  044%=      5-min Rain = 0
KEN1 181605Z 22017KT 22/09 A2976 RMK A01 T02230094  RH  044%=      5-min Rain = 0
KEN1 181606Z 23015KT 22/09 A2976 RMK A01 T02230094  RH  044%=      5-min Rain = 0
KEN1 181607Z 22015KT 22/09 A2976 RMK A01 T02230093  RH  044%=      5-min Rain = 0
KEN1 181608Z 21015KT 22/09 A2976 RMK A01 T02230094  RH  044%=      5-min Rain = 0
KEN1 181609Z 21015KT 23/10 A2976 RMK A01 T02250096  RH  044%=      5-min Rain = 0
KEN1 181610Z 22014KT 23/09 A2976 RMK A01 T02260094  RH  043%=      5-min Rain = 0
KEN1 181611Z 22014KT 23/10 A2976 RMK A01 T02260096  RH  044%=      5-min Rain = 0
KEN1 181612Z 22015KT 23/10 A2976 RMK A01 T02260095  RH  043%=      5-min Rain = 0
KEN1 181613Z 22015KT 23/10 A2976 RMK A01 T02270096  RH  043%=      5-min Rain = 0
KEN1 181614Z 24015KT 23/10 A2976 RMK A01 T02280095  RH  043%=      5-min Rain = 0
KEN1 181615Z 22013KT 23/10 A2976 RMK A01 T02280097  RH  043%=      5-min Rain = 0
KEN1 181616Z 22015KT 23/10 A2976 RMK A01 T02300096  RH  043%=      5-min Rain = 0
KEN1 181617Z 23015KT 23/10 A2976 RMK A01 T02300096  RH  043%=      5-min Rain = 0
KEN1 181618Z 24012KT 23/10 A2976 RMK A01 T02300097  RH  043%=      5-min Rain = 0
KEN1 181619Z 23014KT 23/10 A2976 RMK A01 T02320099  RH  043%=      5-min Rain = 0
KEN1 181620Z 23014KT 23/10 A2976 RMK A01 T02330097  RH  042%=      5-min Rain = 0
KEN1 181621Z 23014KT 23/10 A2976 RMK A01 T02320097  RH  042%=      5-min Rain = 0
KEN1 181622Z 23013KT 23/10 A2976 RMK A01 T02310097  RH  043%=      5-min Rain = 0
KEN1 181623Z 24014KT 23/10 A2976 RMK A01 T02310096  RH  042%=      5-min Rain = 0
KEN1 181624Z 23012KT 23/10 A2976 RMK A01 T02300095  RH  042%=      5-min Rain = 0
KEN1 181625Z 23011KT 23/10 A2976 RMK A01 T02300097  RH  043%=      5-min Rain = 0
KEN1 181626Z 22011KT 23/10 A2976 RMK A01 T02320100  RH  043%=      5-min Rain = 0
KEN1 181627Z 22013KT 24/10 A2976 RMK A01 T02350099  RH  042%=      5-min Rain = 0
KEN1 181628Z 21014KT 24/10 A2976 RMK A01 T02350098  RH  042%=      5-min Rain = 0
KEN1 181629Z 21013KT 23/10 A2975 RMK A01 T02340098  RH  042%=      5-min Rain = 0
KEN1 181630Z 24014KT 24/10 A2975 RMK A01 T02360099  RH  042%=      5-min Rain = 0
KEN1 181631Z 25013KT 24/10 A2976 RMK A01 T02380097  RH  041%=      5-min Rain = 0
KEN1 181632Z 26011KT 24/10 A2975 RMK A01 T02380096  RH  040%=      5-min Rain = 0
KEN1 181633Z 24010KT 24/10 A2975 RMK A01 T02380100  RH  042%=      5-min Rain = 0
KEN1 181634Z 24012KT 24/10 A2975 RMK A01 T02410102  RH  041%=      5-min Rain = 0
KEN1 181635Z 25012KT 24/10 A2975 RMK A01 T02420098  RH  040%=      5-min Rain = 0
KEN1 181636Z 25016KT 24/10 A2975 RMK A01 T02420098  RH  040%=      5-min Rain = 0
KEN1 181637Z 26016KT 24/09 A2975 RMK A01 T02400093  RH  039%=      5-min Rain = 0
KEN1 181638Z 25017KT 24/09 A2975 RMK A01 T02380092  RH  040%=      5-min Rain = 0
KEN1 181639Z 24014KT 24/09 A2975 RMK A01 T02370093  RH  040%=      5-min Rain = 0
KEN1 181640Z 24013KT 24/09 A2975 RMK A01 T02360094  RH  041%=      5-min Rain = 0
KEN1 181641Z 24013KT 24/10 A2975 RMK A01 T02360095  RH  041%=      5-min Rain = 0
KEN1 181642Z 24015KT 24/10 A2975 RMK A01 T02380097  RH  041%=      5-min Rain = 0
KEN1 181643Z 23016KT 24/10 A2975 RMK A01 T02400095  RH  040%=      5-min Rain = 0
KEN1 181644Z 23016KT 24/09 A2975 RMK A01 T02400094  RH  040%=      5-min Rain = 0
KEN1 181645Z 23014KT 24/09 A2975 RMK A01 T02400094  RH  040%=      5-min Rain = 0
KEN1 181646Z 24015KT 24/09 A2975 RMK A01 T02400093  RH  039%=      5-min Rain = 0
KEN1 181647Z 25017KT 24/09 A2975 RMK A01 T02390094  RH  040%=      5-min Rain = 0
KEN1 181648Z 25014KT 24/09 A2975 RMK A01 T02400093  RH  039%=      5-min Rain = 0
KEN1 181649Z 24013KT 24/09 A2975 RMK A01 T02400093  RH  039%=      5-min Rain = 0
KEN1 181650Z 25015KT 24/09 A2975 RMK A01 T02400094  RH  039%=      5-min Rain = 0
KEN1 181651Z 25019KT 24/09 A2975 RMK A01 T02400092  RH  039%=      5-min Rain = 0
KEN1 181652Z 25016KT 24/09 A2975 RMK A01 T02390093  RH  039%=      5-min Rain = 0
KEN1 181653Z 25018KT 24/09 A2975 RMK A01 T02380094  RH  040%=      5-min Rain = 0
KEN1 181654Z 25015KT 24/09 A2975 RMK A01 T02390092  RH  039%=      5-min Rain = 0
KEN1 181655Z 25014KT 24/09 A2975 RMK A01 T02400094  RH  040%=      5-min Rain = 0
KEN1 181656Z 25014KT 24/09 A2975 RMK A01 T02400094  RH  040%=      5-min Rain = 0
KEN1 181657Z 24017KT 24/10 A2975 RMK A01 T02400095  RH  040%=      5-min Rain = 0
KEN1 181658Z 23014KT 24/09 A2975 RMK A01 T02400094  RH  040%=      5-min Rain = 0
KEN1 181659Z 24015KT 24/10 A2975 RMK A01 T02400095  RH  040%=      5-min Rain = 0
KEN1 181700Z 24015G23KT 24/10 A2975 RMK A01 T02400095  RH  040%=      5-min Rain = 0
KEN1 181701Z 25020KT 24/09 A2975 RMK A01 T02430091  RH  038%=      5-min Rain = 0
KEN1 181702Z 26016KT 24/09 A2975 RMK A01 T02430089  RH  038%=      5-min Rain = 0
KEN1 181703Z 25014KT 24/09 A2975 RMK A01 T02420091  RH  038%=      5-min Rain = 0
KEN1 181704Z 25014KT 24/09 A2975 RMK A01 T02440094  RH  039%=      5-min Rain = 0
KEN1 181705Z 23016KT 25/09 A2975 RMK A01 T02460092  RH  038%=      5-min Rain = 0
KEN1 181706Z 24014G21KT 25/09 A2975 RMK A01 T02460092  RH  038%=      5-min Rain = 0
KEN1 181707Z 24016KT 25/09 A2975 RMK A01 T02490094  RH  037%=      5-min Rain = 0
KEN1 181708Z 25018KT 25/09 A2975 RMK A01 T02480091  RH  037%=      5-min Rain = 0
KEN1 181709Z 25016KT 25/09 A2975 RMK A01 T02460089  RH  037%=      5-min Rain = 0
KEN1 181710Z 24016KT 25/09 A2974 RMK A01 T02450091  RH  038%=      5-min Rain = 0
KEN1 181711Z 23014KT 24/09 A2974 RMK A01 T02430092  RH  038%=      5-min Rain = 0
KEN1 181712Z 23017G22KT 24/09 A2974 RMK A01 T02440092  RH  038%=      5-min Rain = 0
KEN1 181713Z 23017KT 25/09 A2974 RMK A01 T02450086  RH  036%=      5-min Rain = 0
KEN1 181714Z 22014KT 24/09 A2974 RMK A01 T02440090  RH  037%=      5-min Rain = 0
KEN1 181715Z 23016KT 25/09 A2974 RMK A01 T02460091  RH  037%=      5-min Rain = 0
KEN1 181716Z 24020KT 25/09 A2974 RMK A01 T02460089  RH  037%=      5-min Rain = 0
KEN1 181717Z 24016KT 25/09 A2974 RMK A01 T02470088  RH  037%=      5-min Rain = 0
KEN1 181718Z 24017KT 25/09 A2974 RMK A01 T02480089  RH  036%=      5-min Rain = 0
KEN1 181719Z 25016KT 25/09 A2974 RMK A01 T02490087  RH  036%=      5-min Rain = 0
KEN1 181720Z 25019KT 25/09 A2974 RMK A01 T02480087  RH  036%=      5-min Rain = 0
KEN1 181721Z 25016KT 25/09 A2974 RMK A01 T02460086  RH  036%=      5-min Rain = 0
KEN1 181722Z 24017KT 25/09 A2974 RMK A01 T02460088  RH  037%=      5-min Rain = 0
KEN1 181723Z 24013KT 25/09 A2974 RMK A01 T02480091  RH  037%=      5-min Rain = 0
KEN1 181724Z 24018KT 25/09 A2974 RMK A01 T02520086  RH  035%=      5-min Rain = 0
KEN1 181725Z 24017KT 25/08 A2974 RMK A01 T02500084  RH  035%=      5-min Rain = 0
KEN1 181726Z 25015G20KT 25/08 A2974 RMK A01 T02480083  RH  035%=      5-min Rain = 0
KEN1 181727Z 24016G21KT 25/08 A2974 RMK A01 T02470084  RH  036%=      5-min Rain = 0
KEN1 181728Z 25017KT 25/08 A2974 RMK A01 T02480083  RH  035%=      5-min Rain = 0
KEN1 181729Z 25016KT 25/08 A2974 RMK A01 T02490084  RH  035%=      5-min Rain = 0
KEN1 181730Z 25013KT 25/09 A2974 RMK A01 T02500085  RH  035%=      5-min Rain = 0
KEN1 181731Z 25013KT 25/09 A2974 RMK A01 T02500085  RH  035%=      5-min Rain = 0
KEN1 181732Z 24017KT 25/09 A2974 RMK A01 T02510088  RH  035%=      5-min Rain = 0
KEN1 181733Z 24014KT 25/09 A2974 RMK A01 T02520087  RH  035%=      5-min Rain = 0
KEN1 181734Z 23015KT 25/09 A2974 RMK A01 T02500085  RH  035%=      5-min Rain = 0
KEN1 181735Z 24017KT 25/09 A2974 RMK A01 T02500088  RH  036%=      5-min Rain = 0
KEN1 181736Z 25016KT 25/08 A2974 RMK A01 T02520084  RH  034%=      5-min Rain = 0
KEN1 181737Z 24012KT 25/08 A2974 RMK A01 T02500084  RH  035%=      5-min Rain = 0
KEN1 181738Z 24013KT 25/09 A2974 RMK A01 T02500086  RH  035%=      5-min Rain = 0
KEN1 181739Z 24016KT 25/09 A2974 RMK A01 T02500086  RH  035%=      5-min Rain = 0
KEN1 181740Z 26019KT 25/09 A2974 RMK A01 T02510085  RH  035%=      5-min Rain = 0
KEN1 181741Z 26016G21KT 25/08 A2974 RMK A01 T02500080  RH  034%=      5-min Rain = 0
KEN1 181742Z 25016G21KT 25/08 A2974 RMK A01 T02490083  RH  035%=      5-min Rain = 0
KEN1 181743Z 25015G22KT 25/08 A2974 RMK A01 T02500082  RH  034%=      5-min Rain = 0
KEN1 181744Z 24018KT 25/08 A2974 RMK A01 T02520083  RH  034%=      5-min Rain = 0
KEN1 181745Z 24020KT 25/08 A2974 RMK A01 T02520084  RH  034%=      5-min Rain = 0
KEN1 181746Z 24016KT 25/09 A2974 RMK A01 T02510085  RH  035%=      5-min Rain = 0
KEN1 181747Z 25017KT 25/09 A2974 RMK A01 T02520086  RH  035%=      5-min Rain = 0
KEN1 181748Z 25017G22KT 25/08 A2974 RMK A01 T02520081  RH  034%=      5-min Rain = 0
KEN1 181749Z 24017KT 25/08 A2974 RMK A01 T02530083  RH  034%=      5-min Rain = 0
KEN1 181750Z 25019KT 25/08 A2974 RMK A01 T02530084  RH  034%=      5-min Rain = 0
KEN1 181751Z 25018KT 25/08 A2974 RMK A01 T02510083  RH  034%=      5-min Rain = 0
KEN1 181752Z 25018KT 25/08 A2974 RMK A01 T02500082  RH  034%=      5-min Rain = 0
KEN1 181753Z 24016KT 25/08 A2973 RMK A01 T02500081  RH  034%=      5-min Rain = 0
KEN1 181754Z 24016KT 25/09 A2973 RMK A01 T02520086  RH  035%=      5-min Rain = 0
KEN1 181755Z 24014KT 25/09 A2973 RMK A01 T02540085  RH  034%=      5-min Rain = 0
KEN1 181756Z 24012KT 25/08 A2973 RMK A01 T02530084  RH  034%=      5-min Rain = 0
KEN1 181757Z 25014G19KT 25/08 A2973 RMK A01 T02520083  RH  034%=      5-min Rain = 0
KEN1 181758Z 26013KT 25/09 A2973 RMK A01 T02530086  RH  034%=      5-min Rain = 0
KEN1 181759Z 24018KT 26/08 A2973 RMK A01 T02550081  RH  033%=      5-min Rain = 0
KEN1 181800Z 25012KT 25/08 A2973 RMK A01 T02540081  RH  033%=      5-min Rain = 0
KEN1 181801Z 25012KT 26/09 A2973 RMK A01 T02550085  RH  034%=      5-min Rain = 0
KEN1 181802Z 25012KT 26/08 A2973 RMK A01 T02570084  RH  033%=      5-min Rain = 0
KEN1 181803Z 25015G21KT 26/09 A2973 RMK A01 T02570085  RH  033%=      5-min Rain = 0
KEN1 181804Z 24017KT 26/08 A2973 RMK A01 T02580082  RH  033%=      5-min Rain = 0
KEN1 181805Z 24015KT 26/09 A2973 RMK A01 T02580086  RH  033%=      5-min Rain = 0
KEN1 181806Z 24016G21KT 26/08 A2973 RMK A01 T02590081  RH  032%=      5-min Rain = 0
KEN1 181807Z 24017KT 26/08 A2973 RMK A01 T02570083  RH  033%=      5-min Rain = 0
KEN1 181808Z 25016KT 26/08 A2973 RMK A01 T02570084  RH  033%=      5-min Rain = 0
KEN1 181809Z 23014KT 26/09 A2973 RMK A01 T02580085  RH  033%=      5-min Rain = 0
KEN1 181810Z 25012KT 26/08 A2973 RMK A01 T02560083  RH  033%=      5-min Rain = 0
KEN1 181811Z 25014KT 25/08 A2973 RMK A01 T02530084  RH  034%=      5-min Rain = 0
KEN1 181812Z 26015KT 25/09 A2973 RMK A01 T02530085  RH  034%=      5-min Rain = 0
KEN1 181813Z 25022G27KT 25/08 A2973 RMK A01 T02540082  RH  033%=      5-min Rain = 0
KEN1 181814Z 25018KT 26/08 A2973 RMK A01 T02550078  RH  032%=      5-min Rain = 0
KEN1 181815Z 25016KT 26/08 A2973 RMK A01 T02550076  RH  032%=      5-min Rain = 0
KEN1 181816Z 25013KT 25/08 A2972 RMK A01 T02540075  RH  032%=      5-min Rain = 0
KEN1 181817Z 26013KT 25/08 A2972 RMK A01 T02540075  RH  032%=      5-min Rain = 0
KEN1 181818Z 26013KT 25/08 A2972 RMK A01 T02540077  RH  032%=      5-min Rain = 0
KEN1 181819Z 25014KT 25/08 A2972 RMK A01 T02540079  RH  033%=      5-min Rain = 0
KEN1 181820Z 25013G19KT 25/08 A2972 RMK A01 T02540079  RH  033%=      5-min Rain = 0
KEN1 181821Z 26018KT 26/08 A2972 RMK A01 T02550077  RH  032%=      5-min Rain = 0
KEN1 181822Z 25013G22KT 26/08 A2972 RMK A01 T02560079  RH  032%=      5-min Rain = 0
KEN1 181823Z 24019KT 26/08 A2972 RMK A01 T02590077  RH  032%=      5-min Rain = 0
KEN1 181824Z 23017G23KT 26/08 A2972 RMK A01 T02580076  RH  031%=      5-min Rain = 0
KEN1 181825Z 24018KT 26/08 A2972 RMK A01 T02580077  RH  032%=      5-min Rain = 0
KEN1 181826Z 25016KT 26/08 A2972 RMK A01 T02590076  RH  031%=      5-min Rain = 0
KEN1 181827Z 25013KT 26/07 A2972 RMK A01 T02580074  RH  031%=      5-min Rain = 0
KEN1 181828Z 26014KT 26/08 A2972 RMK A01 T02570076  RH  032%=      5-min Rain = 0
KEN1 181829Z 26014KT 26/08 A2972 RMK A01 T02590078  RH  032%=      5-min Rain = 0
KEN1 181830Z 24019KT 26/08 A2972 RMK A01 T02610077  RH  031%=      5-min Rain = 0
KEN1 181831Z 25016KT 26/07 A2972 RMK A01 T02630070  RH  029%=      5-min Rain = 0
KEN1 181832Z 24016KT 26/07 A2972 RMK A01 T02610070  RH  030%=      5-min Rain = 0
KEN1 181833Z 24016KT 26/07 A2971 RMK A01 T02610071  RH  030%=      5-min Rain = 0
KEN1 181834Z 24016KT 26/07 A2971 RMK A01 T02610066  RH  029%=      5-min Rain = 0
KEN1 181835Z 26016KT 26/07 A2971 RMK A01 T02590070  RH  030%=      5-min Rain = 0
KEN1 181836Z 27018KT 26/07 A2971 RMK A01 T02610068  RH  029%=      5-min Rain = 0
KEN1 181837Z 26020KT 26/07 A2971 RMK A01 T02620066  RH  029%=      5-min Rain = 0
KEN1 181838Z 27018KT 26/07 A2971 RMK A01 T02610065  RH  029%=      5-min Rain = 0
KEN1 181839Z 26021KT 26/07 A2971 RMK A01 T02610066  RH  029%=      5-min Rain = 0
KEN1 181840Z 26023KT 26/06 A2971 RMK A01 T02620060  RH  028%=      5-min Rain = 0
KEN1 181841Z 25021G26KT 26/06 A2971 RMK A01 T02620062  RH  028%=      5-min Rain = 0
KEN1 181842Z 25021KT 26/06 A2971 RMK A01 T02620062  RH  028%=      5-min Rain = 0
KEN1 181843Z 25020KT 26/06 A2971 RMK A01 T02630062  RH  028%=      5-min Rain = 0
KEN1 181844Z 26020KT 26/06 A2971 RMK A01 T02620064  RH  028%=      5-min Rain = 0
KEN1 181845Z 26016KT 26/06 A2971 RMK A01 T02610064  RH  028%=      5-min Rain = 0
KEN1 181846Z 25015KT 26/07 A2971 RMK A01 T02610067  RH  029%=      5-min Rain = 0
KEN1 181847Z 26017KT 27/07 A297 RMK A01 T02650071  RH  029%=      5-min Rain = 0
KEN1 181848Z 24017KT 27/07 A297 RMK A01 T02670072  RH  029%=      5-min Rain = 0
KEN1 181849Z 26017KT 27/07 A297 RMK A01 T02680069  RH  028%=      5-min Rain = 0
KEN1 181850Z 25020KT 27/07 A297 RMK A01 T02660067  RH  028%=      5-min Rain = 0
KEN1 181851Z 25019KT 26/07 A297 RMK A01 T02630069  RH  029%=      5-min Rain = 0
KEN1 181852Z 25015G20KT 26/07 A297 RMK A01 T02620072  RH  030%=      5-min Rain = 0
KEN1 181853Z 26017G22KT 26/07 A297 RMK A01 T02620072  RH  030%=      5-min Rain = 0
KEN1 181854Z 24015G21KT 26/07 A297 RMK A01 T02630074  RH  030%=      5-min Rain = 0
KEN1 181855Z 24019KT 27/07 A297 RMK A01 T02650071  RH  029%=      5-min Rain = 0
KEN1 181856Z 26020KT 27/07 A297 RMK A01 T02650069  RH  029%=      5-min Rain = 0
KEN1 181857Z 25018G23KT 26/07 A297 RMK A01 T02640068  RH  029%=      5-min Rain = 0
KEN1 181858Z 25018KT 26/07 A297 RMK A01 T02630069  RH  029%=      5-min Rain = 0
KEN1 181859Z 24020KT 26/07 A2969 RMK A01 T02640067  RH  029%=      5-min Rain = 0
KEN1 181900Z 24022G29KT 26/07 A2969 RMK A01 T02640067  RH  028%=      5-min Rain = 0
KEN1 181901Z 23018KT 26/07 A2969 RMK A01 T02640068  RH  029%=      5-min Rain = 0
KEN1 181902Z 23016KT 26/07 A2969 RMK A01 T02640068  RH  029%=      5-min Rain = 0
KEN1 181903Z 23015G21KT 26/07 A2969 RMK A01 T02640069  RH  029%=      5-min Rain = 0
KEN1 181904Z 25019KT 26/07 A2969 RMK A01 T02620069  RH  029%=      5-min Rain = 0
KEN1 181905Z 26018KT 26/07 A2969 RMK A01 T02600066  RH  029%=      5-min Rain = 0
KEN1 181906Z 26015KT 26/07 A2969 RMK A01 T02600068  RH  029%=      5-min Rain = 0
KEN1 181907Z 24013KT 26/07 A2969 RMK A01 T02600067  RH  029%=      5-min Rain = 0
KEN1 181908Z 23015KT 26/07 A2969 RMK A01 T02600072  RH  030%=      5-min Rain = 0
KEN1 181909Z 23014KT 26/07 A2969 RMK A01 T02620072  RH  030%=      5-min Rain = 0
KEN1 181910Z 23015KT 26/07 A2969 RMK A01 T02630070  RH  029%=      5-min Rain = 0
KEN1 181911Z 24018KT 26/07 A2969 RMK A01 T02630074  RH  030%=      5-min Rain = 0
KEN1 181912Z 24018KT 27/08 A2969 RMK A01 T02660076  RH  030%=      5-min Rain = 0
KEN1 181913Z 24016KT 27/08 A2969 RMK A01 T02660076  RH  030%=      5-min Rain = 0
KEN1 181914Z 25013G18KT 26/08 A2968 RMK A01 T02630078  RH  031%=      5-min Rain = 0
KEN1 181915Z 25017KT 27/08 A2969 RMK A01 T02660078  RH  030%=      5-min Rain = 0
KEN1 181916Z 25015KT 26/07 A2968 RMK A01 T02600072  RH  030%=      5-min Rain = 0
KEN1 181917Z 23013KT 26/07 A2968 RMK A01 T02550072  RH  031%=      5-min Rain = 0
KEN1 181918Z 25013KT 26/07 A2968 RMK A01 T02550073  RH  031%=      5-min Rain = 0
KEN1 181919Z 26015KT 26/07 A2968 RMK A01 T02600074  RH  031%=      5-min Rain = 0
KEN1 181920Z 26014KT 26/07 A2968 RMK A01 T02640071  RH  029%=      5-min Rain = 0
KEN1 181921Z 25012KT 27/07 A2968 RMK A01 T02650072  RH  029%=      5-min Rain = 0
KEN1 181922Z 25015KT 26/07 A2968 RMK A01 T02640070  RH  029%=      5-min Rain = 0
KEN1 181923Z 24017G22KT 26/07 A2968 RMK A01 T02610066  RH  029%=      5-min Rain = 0
KEN1 181924Z 23019G25KT 26/06 A2968 RMK A01 T02590061  RH  028%=      5-min Rain = 0
KEN1 181925Z 24024KT 26/06 A2968 RMK A01 T02630062  RH  028%=      5-min Rain = 0
KEN1 181926Z 24019KT 27/06 A2968 RMK A01 T02660060  RH  027%=      5-min Rain = 0
KEN1 181927Z 23016KT 27/06 A2968 RMK A01 T02670064  RH  027%=      5-min Rain = 0
KEN1 181928Z 24012KT 27/07 A2968 RMK A01 T02690068  RH  028%=      5-min Rain = 0
KEN1 181929Z 25016KT 27/07 A2967 RMK A01 T02700070  RH  028%=      5-min Rain = 0
KEN1 181930Z 24014KT 27/07 A2967 RMK A01 T02700070  RH  028%=      5-min Rain = 0
KEN1 181931Z 22016KT 27/08 A2967 RMK A01 T02690076  RH  029%=      5-min Rain = 0
KEN1 181932Z 22015G20KT 27/07 A2967 RMK A01 T02720068  RH  028%=      5-min Rain = 0
KEN1 181933Z 22022KT 27/06 A2967 RMK A01 T02740061  RH  026%=      5-min Rain = 0
KEN1 181934Z 22023KT 28/06 A2967 RMK A01 T02750055  RH  025%=      5-min Rain = 0
KEN1 181935Z 23020G25KT 27/05 A2967 RMK A01 T02740053  RH  024%=      5-min Rain = 0
KEN1 181936Z 23018KT 27/05 A2967 RMK A01 T02740049  RH  024%=      5-min Rain = 0
KEN1 181937Z 23016G22KT 27/05 A2967 RMK A01 T02720048  RH  024%=      5-min Rain = 0
KEN1 181938Z 24020KT 27/05 A2967 RMK A01 T02720048  RH  024%=      5-min Rain = 0
KEN1 181939Z 23019G24KT 27/05 A2967 RMK A01 T02740050  RH  024%=      5-min Rain = 0
KEN1 181940Z 23021KT 28/05 A2967 RMK A01 T02750050  RH  024%=      5-min Rain = 0
KEN1 181941Z 22020KT 28/05 A2967 RMK A01 T02760052  RH  024%=      5-min Rain = 0
KEN1 181942Z 22022KT 28/05 A2966 RMK A01 T02760050  RH  024%=      5-min Rain = 0
KEN1 181943Z 22021KT 28/05 A2966 RMK A01 T02750052  RH  024%=      5-min Rain = 0
KEN1 181944Z 22022KT 28/05 A2966 RMK A01 T02750054  RH  024%=      5-min Rain = 0
KEN1 181945Z 21019KT 27/06 A2966 RMK A01 T02740058  RH  025%=      5-min Rain = 0
KEN1 181946Z 21020G26KT 27/06 A2966 RMK A01 T02740058  RH  025%=      5-min Rain = 0
KEN1 181947Z 22019KT 27/06 A2966 RMK A01 T02720060  RH  026%=      5-min Rain = 0
KEN1 181948Z 22016KT 27/06 A2966 RMK A01 T02730061  RH  026%=      5-min Rain = 0
KEN1 181949Z 23018KT 27/05 A2966 RMK A01 T02740053  RH  024%=      5-min Rain = 0
KEN1 181950Z 23018KT 27/05 A2966 RMK A01 T02740051  RH  024%=      5-min Rain = 0
KEN1 181951Z 23020G26KT 27/05 A2966 RMK A01 T02730051  RH  024%=      5-min Rain = 0
KEN1 181952Z 22017KT 27/05 A2966 RMK A01 T02720051  RH  024%=      5-min Rain = 0
KEN1 181953Z 23015KT 27/05 A2966 RMK A01 T02730051  RH  024%=      5-min Rain = 0
KEN1 181954Z 24017G23KT 27/05 A2966 RMK A01 T02740053  RH  024%=      5-min Rain = 0
KEN1 181955Z 23018KT 28/05 A2966 RMK A01 T02760049  RH  023%=      5-min Rain = 0
KEN1 181956Z 23018KT 28/04 A2966 RMK A01 T02780040  RH  022%=      5-min Rain = 0
KEN1 181957Z 23018KT 28/04 A2966 RMK A01 T02770043  RH  022%=      5-min Rain = 0
KEN1 181958Z 23023G28KT 28/04 A2966 RMK A01 T02780043  RH  022%=      5-min Rain = 0
KEN1 181959Z 23024G30KT 28/04 A2965 RMK A01 T02770039  RH  022%=      5-min Rain = 0
KEN1 182000Z 24023G28KT 28/04 A2966 RMK A01 T02750039  RH  022%=      5-min Rain = 0
KEN1 182001Z 24023KT 28/04 A2966 RMK A01 T02750039  RH  022%=      5-min Rain = 0
KEN1 182002Z 24018KT 28/04 A2966 RMK A01 T02750040  RH  022%=      5-min Rain = 0
KEN1 182003Z 23016G21KT 27/04 A2966 RMK A01 T02730040  RH  022%=      5-min Rain = 0
KEN1 182004Z 22019G27KT 27/04 A2966 RMK A01 T02730044  RH  023%=      5-min Rain = 0
KEN1 182005Z 23022KT 27/04 A2965 RMK A01 T02730043  RH  023%=      5-min Rain = 0
KEN1 182006Z 23018G24KT 27/04 A2966 RMK A01 T02740039  RH  022%=      5-min Rain = 0
KEN1 182007Z 25016KT 28/04 A2966 RMK A01 T02760042  RH  022%=      5-min Rain = 0
KEN1 182008Z 25016KT 28/04 A2966 RMK A01 T02780041  RH  022%=      5-min Rain = 0
KEN1 182009Z 25017G22KT 28/04 A2966 RMK A01 T02780037  RH  021%=      5-min Rain = 0
KEN1 182010Z 24018KT 28/03 A2965 RMK A01 T02780026  RH  020%=      5-min Rain = 0
KEN1 182011Z 26020KT 28/03 A2965 RMK A01 T02780030  RH  020%=      5-min Rain = 0
KEN1 182012Z 25017G22KT 28/04 A2966 RMK A01 T02780038  RH  021%=      5-min Rain = 0
KEN1 182013Z 24019KT 28/03 A2965 RMK A01 T02780033  RH  021%=      5-min Rain = 0
KEN1 182014Z 26018KT 28/04 A2966 RMK A01 T02770036  RH  021%=      5-min Rain = 0
KEN1 182015Z 26017G22KT 28/04 A2965 RMK A01 T02760035  RH  021%=      5-min Rain = 0
KEN1 182016Z 24013KT 28/04 A2965 RMK A01 T02760040  RH  022%=      5-min Rain = 0
KEN1 182017Z 24017G22KT 28/04 A2965 RMK A01 T02760038  RH  022%=      5-min Rain = 0
KEN1 182018Z 23016KT 28/04 A2965 RMK A01 T02770037  RH  021%=      5-min Rain = 0
KEN1 182019Z 24021KT 28/03 A2965 RMK A01 T02810034  RH  021%=      5-min Rain = 0
KEN1 182020Z 25019G24KT 28/03 A2965 RMK A01 T02810031  RH  020%=      5-min Rain = 0
KEN1 182021Z 26020KT 28/03 A2965 RMK A01 T02800032  RH  020%=      5-min Rain = 0
KEN1 182022Z 26020KT 28/03 A2965 RMK A01 T02780032  RH  021%=      5-min Rain = 0
KEN1 182023Z 25018KT 28/03 A2965 RMK A01 T02760031  RH  021%=      5-min Rain = 0
KEN1 182024Z 25016KT 28/03 A2965 RMK A01 T02760033  RH  021%=      5-min Rain = 0
KEN1 182025Z 25016KT 28/03 A2965 RMK A01 T02750033  RH  021%=      5-min Rain = 0
KEN1 182026Z 24015KT 28/03 A2965 RMK A01 T02750030  RH  021%=      5-min Rain = 0
KEN1 182027Z 24017G23KT 27/03 A2965 RMK A01 T02740034  RH  021%=      5-min Rain = 0
KEN1 182028Z 24023G28KT 28/04 A2965 RMK A01 T02780036  RH  021%=      5-min Rain = 0
KEN1 182029Z 25020KT 28/03 A2965 RMK A01 T02770031  RH  021%=      5-min Rain = 0
KEN1 182030Z 25018KT 27/03 A2965 RMK A01 T02730032  RH  021%=      5-min Rain = 0
KEN1 182031Z 24018KT 27/04 A2965 RMK A01 T02730036  RH  022%=      5-min Rain = 0
KEN1 182032Z 25018KT 28/04 A2965 RMK A01 T02770042  RH  022%=      5-min Rain = 0
KEN1 182033Z 27017G22KT 28/05 A2965 RMK A01 T02780046  RH  023%=      5-min Rain = 0
KEN1 182034Z 28018KT 28/05 A2965 RMK A01 T02760045  RH  023%=      5-min Rain = 0
KEN1 182035Z 28016KT 28/05 A2965 RMK A01 T02750045  RH  023%=      5-min Rain = 0
KEN1 182036Z 28014KT 27/05 A2965 RMK A01 T02740047  RH  023%=      5-min Rain = 0
KEN1 182037Z 28013KT 27/05 A2965 RMK A01 T02740045  RH  023%=      5-min Rain = 0
KEN1 182038Z 26014KT 27/04 A2965 RMK A01 T02730043  RH  023%=      5-min Rain = 0
KEN1 182039Z 27015G21KT 27/05 A2965 RMK A01 T02730045  RH  023%=      5-min Rain = 0
KEN1 182040Z 25018G23KT 27/04 A2965 RMK A01 T02740044  RH  023%=      5-min Rain = 0
KEN1 182041Z 25020KT 28/04 A2965 RMK A01 T02750038  RH  022%=      5-min Rain = 0
KEN1 182042Z 26022KT 27/04 A2965 RMK A01 T02720036  RH  022%=      5-min Rain = 0
KEN1 182043Z 26020KT 27/04 A2965 RMK A01 T02660036  RH  023%=      5-min Rain = 0
KEN1 182044Z 25017KT 26/04 A2965 RMK A01 T02620036  RH  023%=      5-min Rain = 0
KEN1 182045Z 25014KT 26/04 A2965 RMK A01 T02610036  RH  024%=      5-min Rain = 0
KEN1 182046Z 25013KT 26/04 A2965 RMK A01 T02620038  RH  024%=      5-min Rain = 0
KEN1 182047Z 27011KT 27/04 A2965 RMK A01 T02660042  RH  024%=      5-min Rain = 0
KEN1 182048Z 27011KT 27/05 A2965 RMK A01 T02710047  RH  024%=      5-min Rain = 0
KEN1 182049Z 27010KT 28/05 A2965 RMK A01 T02750048  RH  023%=      5-min Rain = 0
KEN1 182050Z 27009KT 28/05 A2965 RMK A01 T02770047  RH  023%=      5-min Rain = 0
KEN1 182051Z 27011KT 28/05 A2964 RMK A01 T02780047  RH  023%=      5-min Rain = 0
KEN1 182052Z 26011KT 28/05 A2964 RMK A01 T02780045  RH  023%=      5-min Rain = 0
KEN1 182053Z 26014G20KT 28/05 A2964 RMK A01 T02790045  RH  022%=      5-min Rain = 0
KEN1 182054Z 24018KT 28/04 A2964 RMK A01 T02790041  RH  022%=      5-min Rain = 0
KEN1 182055Z 25016KT 28/04 A2965 RMK A01 T02790038  RH  021%=      5-min Rain = 0
KEN1 182056Z 25016G21KT 28/04 A2965 RMK A01 T02800036  RH  021%=      5-min Rain = 0
KEN1 182057Z 26014KT 28/04 A2965 RMK A01 T02790037  RH  021%=      5-min Rain = 0
KEN1 182058Z 26020KT 28/04 A2965 RMK A01 T02790039  RH  021%=      5-min Rain = 0
KEN1 182059Z 27016KT 28/04 A2965 RMK A01 T02780035  RH  021%=      5-min Rain = 0
KEN1 182100Z 25020KT 28/04 A2965 RMK A01 T02780035  RH  021%=      5-min Rain = 0
KEN1 182101Z 24022KT 28/03 A2965 RMK A01 T02770029  RH  020%=      5-min Rain = 0
KEN1 182102Z 25021G27KT 28/03 A2965 RMK A01 T02750027  RH  020%=      5-min Rain = 0
KEN1 182103Z 24021KT 27/03 A2965 RMK A01 T02740030  RH  021%=      5-min Rain = 0
KEN1 182104Z 25019KT 27/03 A2965 RMK A01 T02740030  RH  021%=      5-min Rain = 0
KEN1 182105Z 25016KT 28/03 A2965 RMK A01 T02750033  RH  021%=      5-min Rain = 0
KEN1 182106Z 25017KT 28/03 A2965 RMK A01 T02750033  RH  021%=      5-min Rain = 0
KEN1 182107Z 25013KT 27/03 A2965 RMK A01 T02730032  RH  021%=      5-min Rain = 0
KEN1 182108Z 25016KT 27/03 A2965 RMK A01 T02730033  RH  021%=      5-min Rain = 0
KEN1 182109Z 26013G18KT 27/04 A2965 RMK A01 T02740035  RH  021%=      5-min Rain = 0
KEN1 182110Z 25018G24KT 28/04 A2965 RMK A01 T02760037  RH  022%=      5-min Rain = 0
KEN1 182111Z 25019KT 27/03 A2965 RMK A01 T02740034  RH  021%=      5-min Rain = 0
KEN1 182112Z 26018G24KT 27/04 A2965 RMK A01 T02700039  RH  023%=      5-min Rain = 0
KEN1 182113Z 26019G24KT 27/04 A2965 RMK A01 T02670035  RH  022%=      5-min Rain = 0
KEN1 182114Z 25017KT 26/04 A2965 RMK A01 T02640035  RH  023%=      5-min Rain = 0
KEN1 182115Z 25018KT 26/03 A2965 RMK A01 T02620034  RH  023%=      5-min Rain = 0
KEN1 182116Z 26018G23KT 26/04 A2965 RMK A01 T02640037  RH  023%=      5-min Rain = 0
KEN1 182117Z 27019KT 27/04 A2965 RMK A01 T02660036  RH  023%=      5-min Rain = 0
KEN1 182118Z 27018KT 27/04 A2965 RMK A01 T02690037  RH  022%=      5-min Rain = 0
KEN1 182119Z 27019KT 27/04 A2965 RMK A01 T02710036  RH  022%=      5-min Rain = 0
KEN1 182120Z 27016KT 27/04 A2965 RMK A01 T02710036  RH  022%=      5-min Rain = 0
KEN1 182121Z 27018KT 27/04 A2965 RMK A01 T02690035  RH  022%=      5-min Rain = 0
KEN1 182122Z 27015KT 27/04 A2965 RMK A01 T02650036  RH  023%=      5-min Rain = 0
KEN1 182123Z 28016KT 26/04 A2965 RMK A01 T02630035  RH  023%=      5-min Rain = 0
KEN1 182124Z 27017G23KT 27/04 A2965 RMK A01 T02660035  RH  023%=      5-min Rain = 0
KEN1 182125Z 27022KT 27/03 A2965 RMK A01 T02700033  RH  022%=      5-min Rain = 0
KEN1 182126Z 27016KT 27/03 A2965 RMK A01 T02700032  RH  022%=      5-min Rain = 0
KEN1 182127Z 27016KT 27/04 A2965 RMK A01 T02720037  RH  022%=      5-min Rain = 0
KEN1 182128Z 27017KT 27/03 A2965 RMK A01 T02730034  RH  022%=      5-min Rain = 0
KEN1 182129Z 26017KT 27/03 A2965 RMK A01 T02730034  RH  021%=      5-min Rain = 0
KEN1 182130Z 25020G26KT 27/03 A2965 RMK A01 T02740034  RH  021%=      5-min Rain = 0
KEN1 182131Z 25021KT 27/03 A2965 RMK A01 T02740031  RH  021%=      5-min Rain = 0
KEN1 182132Z 25018KT 27/03 A2965 RMK A01 T02730031  RH  021%=      5-min Rain = 0
KEN1 182133Z 26018KT 27/03 A2965 RMK A01 T02730028  RH  021%=      5-min Rain = 0
KEN1 182134Z 24016G22KT 27/03 A2965 RMK A01 T02720031  RH  021%=      5-min Rain = 0
KEN1 182135Z 24019KT 27/03 A2965 RMK A01 T02720027  RH  021%=      5-min Rain = 0
KEN1 182136Z 24016KT 27/03 A2965 RMK A01 T02730026  RH  020%=      5-min Rain = 0
KEN1 182137Z 25017G22KT 27/03 A2965 RMK A01 T02730028  RH  021%=      5-min Rain = 0
KEN1 182138Z 25023KT 27/03 A2965 RMK A01 T02740028  RH  020%=      5-min Rain = 0
KEN1 182139Z 25018G23KT 27/03 A2965 RMK A01 T02740027  RH  020%=      5-min Rain = 0
KEN1 182140Z 25021KT 27/03 A2965 RMK A01 T02730028  RH  021%=      5-min Rain = 0
KEN1 182141Z 25017G22KT 27/03 A2965 RMK A01 T02720028  RH  021%=      5-min Rain = 0
KEN1 182142Z 26015KT 27/03 A2965 RMK A01 T02700029  RH  021%=      5-min Rain = 0
KEN1 182143Z 26016KT 27/03 A2965 RMK A01 T02670029  RH  021%=      5-min Rain = 0
KEN1 182144Z 26015KT 27/03 A2965 RMK A01 T02670030  RH  022%=      5-min Rain = 0
KEN1 182145Z 26021KT 27/03 A2965 RMK A01 T02690025  RH  021%=      5-min Rain = 0
KEN1 182146Z 27019KT 27/02 A2965 RMK A01 T02690022  RH  020%=      5-min Rain = 0
KEN1 182147Z 27021G26KT 27/02 A2965 RMK A01 T02700022  RH  020%=      5-min Rain = 0
KEN1 182148Z 25018G23KT 27/02 A2966 RMK A01 T02710023  RH  020%=      5-min Rain = 0
KEN1 182149Z 25019KT 27/02 A2965 RMK A01 T02710021  RH  020%=      5-min Rain = 0
KEN1 182150Z 26017KT 27/02 A2965 RMK A01 T02710019  RH  020%=      5-min Rain = 0
KEN1 182151Z 25017KT 27/02 A2965 RMK A01 T02700021  RH  020%=      5-min Rain = 0
KEN1 182152Z 24018G23KT 27/02 A2965 RMK A01 T02710019  RH  020%=      5-min Rain = 0
KEN1 182153Z 27018KT 27/02 A2965 RMK A01 T02710021  RH  020%=      5-min Rain = 0
KEN1 182154Z 27017KT 27/02 A2965 RMK A01 T02700019  RH  020%=      5-min Rain = 0
KEN1 182155Z 27018G23KT 27/02 A2965 RMK A01 T02680020  RH  020%=      5-min Rain = 0
KEN1 182156Z 27020KT 27/02 A2965 RMK A01 T02700017  RH  019%=      5-min Rain = 0
KEN1 182157Z 26018KT 27/02 A2965 RMK A01 T02700016  RH  019%=      5-min Rain = 0
KEN1 182158Z 25020KT 27/02 A2965 RMK A01 T02690017  RH  019%=      5-min Rain = 0
KEN1 182159Z 26020KT 27/02 A2965 RMK A01 T02690015  RH  019%=      5-min Rain = 0
KEN1 182200Z 26018KT 27/02 A2965 RMK A01 T02690017  RH  019%=      5-min Rain = 0
KEN1 182201Z 27018KT 27/02 A2965 RMK A01 T02690018  RH  020%=      5-min Rain = 0
KEN1 182202Z 27017KT 27/02 A2965 RMK A01 T02690018  RH  020%=      5-min Rain = 0
KEN1 182203Z 26016KT 27/02 A2965 RMK A01 T02700019  RH  020%=      5-min Rain = 0
KEN1 182204Z 28017KT 27/02 A2966 RMK A01 T02710018  RH  019%=      5-min Rain = 0
KEN1 182205Z 28016G21KT 27/02 A2965 RMK A01 T02700018  RH  019%=      5-min Rain = 0
KEN1 182206Z 27014KT 27/02 A2965 RMK A01 T02700019  RH  020%=      5-min Rain = 0
KEN1 182207Z 27018G24KT 27/02 A2965 RMK A01 T02700019  RH  020%=      5-min Rain = 0
KEN1 182208Z 26023KT 27/02 A2966 RMK A01 T02700015  RH  019%=      5-min Rain = 0
KEN1 182209Z 26021KT 27/01 A2966 RMK A01 T02690014  RH  019%=      5-min Rain = 0
KEN1 182210Z 26019KT 27/01 A2966 RMK A01 T02670014  RH  019%=      5-min Rain = 0
KEN1 182211Z 26016KT 27/02 A2966 RMK A01 T02680017  RH  020%=      5-min Rain = 0
KEN1 182212Z 25019KT 27/02 A2966 RMK A01 T02690019  RH  020%=      5-min Rain = 0
KEN1 182213Z 25019KT 27/02 A2966 RMK A01 T02700015  RH  019%=      5-min Rain = 0
KEN1 182214Z 25018KT 27/02 A2966 RMK A01 T02690016  RH  019%=      5-min Rain = 0
KEN1 182215Z 25020KT 27/01 A2966 RMK A01 T02680013  RH  019%=      5-min Rain = 0
KEN1 182216Z 26018KT 27/01 A2966 RMK A01 T02670014  RH  019%=      5-min Rain = 0
KEN1 182217Z 27023KT 27/01 A2966 RMK A01 T02670013  RH  019%=      5-min Rain = 0
KEN1 182218Z 27021KT 27/01 A2966 RMK A01 T02670010  RH  019%=      5-min Rain = 0
KEN1 182219Z 27021KT 27/01 A2966 RMK A01 T02660012  RH  019%=      5-min Rain = 0
KEN1 182220Z 26022KT 27/01 A2966 RMK A01 T02660011  RH  019%=      5-min Rain = 0
KEN1 182221Z 26023KT 27/01 A2966 RMK A01 T02660009  RH  019%=      5-min Rain = 0
KEN1 182222Z 26023KT 27/01 A2966 RMK A01 T02650008  RH  019%=      5-min Rain = 0
KEN1 182223Z 26020KT 26/01 A2966 RMK A01 T02640008  RH  019%=      5-min Rain = 0
KEN1 182224Z 25018KT 26/01 A2966 RMK A01 T02640010  RH  019%=      5-min Rain = 0
KEN1 182225Z 25016KT 26/01 A2966 RMK A01 T02640011  RH  019%=      5-min Rain = 0
KEN1 182226Z 26016G21KT 27/01 A2966 RMK A01 T02650013  RH  019%=      5-min Rain = 0
KEN1 182227Z 25020KT 27/01 A2966 RMK A01 T02660010  RH  019%=      5-min Rain = 0
KEN1 182228Z 25020KT 27/01 A2966 RMK A01 T02650008  RH  019%=      5-min Rain = 0
KEN1 182229Z 26020KT 26/01 A2966 RMK A01 T02640008  RH  019%=      5-min Rain = 0
KEN1 182230Z 26019KT 26/01 A2966 RMK A01 T02640007  RH  019%=      5-min Rain = 0
KEN1 182231Z 26020KT 26/01 A2966 RMK A01 T02630008  RH  019%=      5-min Rain = 0
KEN1 182232Z 26017KT 26/01 A2966 RMK A01 T02630008  RH  019%=      5-min Rain = 0
KEN1 182233Z 26019KT 26/01 A2966 RMK A01 T02620009  RH  019%=      5-min Rain = 0
KEN1 182234Z 26019KT 26/01 A2966 RMK A01 T02630010  RH  019%=      5-min Rain = 0
KEN1 182235Z 25020KT 26/01 A2966 RMK A01 T02620010  RH  019%=      5-min Rain = 0
KEN1 182236Z 26021G27KT 26/01 A2966 RMK A01 T02610012  RH  020%=      5-min Rain = 0
KEN1 182237Z 26019KT 26/02 A2966 RMK A01 T02610016  RH  020%=      5-min Rain = 0
KEN1 182238Z 27020KT 26/02 A2966 RMK A01 T02610018  RH  021%=      5-min Rain = 0
KEN1 182239Z 27019KT 26/02 A2967 RMK A01 T02590016  RH  021%=      5-min Rain = 0
KEN1 182240Z 26016KT 26/02 A2967 RMK A01 T02580019  RH  021%=      5-min Rain = 0
KEN1 182241Z 26016KT 26/02 A2967 RMK A01 T02560019  RH  021%=      5-min Rain = 0
KEN1 182242Z 26016KT 25/02 A2967 RMK A01 T02540020  RH  022%=      5-min Rain = 0
KEN1 182243Z 27014KT 25/02 A2967 RMK A01 T02520020  RH  022%=      5-min Rain = 0
KEN1 182244Z 26014KT 25/02 A2967 RMK A01 T02510021  RH  022%=      5-min Rain = 0
KEN1 182245Z 27015G20KT 25/02 A2967 RMK A01 T02510022  RH  022%=      5-min Rain = 0
KEN1 182246Z 27013KT 25/02 A2967 RMK A01 T02520021  RH  022%=      5-min Rain = 0
KEN1 182247Z 26014KT 25/02 A2967 RMK A01 T02520021  RH  022%=      5-min Rain = 0
KEN1 182248Z 26015KT 25/02 A2967 RMK A01 T02530019  RH  022%=      5-min Rain = 0
KEN1 182249Z 27017KT 25/02 A2967 RMK A01 T02530018  RH  022%=      5-min Rain = 0
KEN1 182250Z 27014KT 25/02 A2967 RMK A01 T02540020  RH  022%=      5-min Rain = 0
KEN1 182251Z 27015G22KT 26/02 A2967 RMK A01 T02550021  RH  022%=      5-min Rain = 0
KEN1 182252Z 26019KT 26/02 A2967 RMK A01 T02550019  RH  021%=      5-min Rain = 0
KEN1 182253Z 26019KT 26/02 A2967 RMK A01 T02560017  RH  021%=      5-min Rain = 0
KEN1 182254Z 26020KT 26/02 A2967 RMK A01 T02560017  RH  021%=      5-min Rain = 0
KEN1 182255Z 26021G27KT 26/02 A2967 RMK A01 T02560018  RH  021%=      5-min Rain = 0
KEN1 182256Z 27019KT 26/02 A2967 RMK A01 T02560017  RH  021%=      5-min Rain = 0
KEN1 182257Z 27016KT 26/02 A2967 RMK A01 T02560019  RH  021%=      5-min Rain = 0
KEN1 182258Z 28020G27KT 26/02 A2967 RMK A01 T02560020  RH  022%=      5-min Rain = 0
KEN1 182259Z 27022KT 26/02 A2967 RMK A01 T02560017  RH  021%=      5-min Rain = 0
KEN1 182300Z 27018KT 26/02 A2967 RMK A01 T02550015  RH  021%=      5-min Rain = 0
KEN1 182301Z 27018G23KT 26/02 A2968 RMK A01 T02550018  RH  021%=      5-min Rain = 0
KEN1 182302Z 27020KT 25/02 A2968 RMK A01 T02540017  RH  021%=      5-min Rain = 0
KEN1 182303Z 27020KT 25/02 A2968 RMK A01 T02540016  RH  021%=      5-min Rain = 0
KEN1 182304Z 27016KT 25/02 A2967 RMK A01 T02540017  RH  021%=      5-min Rain = 0
KEN1 182305Z 27018KT 25/02 A2968 RMK A01 T02540018  RH  021%=      5-min Rain = 0
KEN1 182306Z 27020KT 25/02 A2968 RMK A01 T02540017  RH  021%=      5-min Rain = 0
KEN1 182307Z 27019KT 25/01 A2968 RMK A01 T02510014  RH  021%=      5-min Rain = 0
KEN1 182308Z 27017KT 25/02 A2968 RMK A01 T02500016  RH  022%=      5-min Rain = 0
KEN1 182309Z 27019G24KT 25/02 A2968 RMK A01 T02490015  RH  022%=      5-min Rain = 0
KEN1 182310Z 27019KT 25/01 A2968 RMK A01 T02480014  RH  022%=      5-min Rain = 0
KEN1 182311Z 26018KT 25/01 A2968 RMK A01 T02470013  RH  022%=      5-min Rain = 0
KEN1 182312Z 26020KT 25/01 A2968 RMK A01 T02460012  RH  022%=      5-min Rain = 0
KEN1 182313Z 26020KT 25/01 A2968 RMK A01 T02460011  RH  021%=      5-min Rain = 0
KEN1 182314Z 27021KT 25/01 A2968 RMK A01 T02450010  RH  021%=      5-min Rain = 0
KEN1 182315Z 27018KT 25/01 A2968 RMK A01 T02450010  RH  021%=      5-min Rain = 0
KEN1 182316Z 27015G20KT 24/01 A2968 RMK A01 T02440011  RH  022%=      5-min Rain = 0
KEN1 182317Z 27014KT 24/01 A2968 RMK A01 T02430012  RH  022%=      5-min Rain = 0
KEN1 182318Z 27013KT 24/01 A2968 RMK A01 T02430012  RH  022%=      5-min Rain = 0
KEN1 182319Z 27016G22KT 24/01 A2968 RMK A01 T02420012  RH  022%=      5-min Rain = 0
KEN1 182320Z 26017KT 24/01 A2968 RMK A01 T02430012  RH  022%=      5-min Rain = 0
KEN1 182321Z 27014G19KT 24/01 A2968 RMK A01 T02420011  RH  022%=      5-min Rain = 0
KEN1 182322Z 27015KT 24/01 A2968 RMK A01 T02430011  RH  022%=      5-min Rain = 0
KEN1 182323Z 27014KT 24/01 A2968 RMK A01 T02420011  RH  022%=      5-min Rain = 0
KEN1 182324Z 27013KT 24/01 A2969 RMK A01 T02420012  RH  022%=      5-min Rain = 0
KEN1 182325Z 27012KT 24/01 A2969 RMK A01 T02420013  RH  022%=      5-min Rain = 0
KEN1 182326Z 27011KT 24/01 A2969 RMK A01 T02410014  RH  023%=      5-min Rain = 0
KEN1 182327Z 27012KT 24/01 A2969 RMK A01 T02400014  RH  023%=      5-min Rain = 0
KEN1 182328Z 27011KT 24/02 A2969 RMK A01 T02400015  RH  023%=      5-min Rain = 0
KEN1 182329Z 27013KT 24/01 A2969 RMK A01 T02390014  RH  023%=      5-min Rain = 0
KEN1 182330Z 27015KT 24/01 A2969 RMK A01 T02390013  RH  023%=      5-min Rain = 0
KEN1 182331Z 27013KT 24/01 A2969 RMK A01 T02400013  RH  023%=      5-min Rain = 0
KEN1 182332Z 26015KT 24/01 A2969 RMK A01 T02390012  RH  022%=      5-min Rain = 0
KEN1 182333Z 27014KT 24/01 A2969 RMK A01 T02390011  RH  022%=      5-min Rain = 0
KEN1 182334Z 26014KT 24/01 A2969 RMK A01 T02390010  RH  022%=      5-min Rain = 0
KEN1 182335Z 26013KT 24/01 A2969 RMK A01 T02390010  RH  022%=      5-min Rain = 0
KEN1 182336Z 27012G17KT 24/01 A2969 RMK A01 T02380011  RH  022%=      5-min Rain = 0
KEN1 182337Z 27013KT 24/01 A2969 RMK A01 T02380009  RH  022%=      5-min Rain = 0
KEN1 182338Z 27011KT 24/01 A2969 RMK A01 T02380010  RH  022%=      5-min Rain = 0
KEN1 182339Z 26013G18KT 24/01 A2969 RMK A01 T02370009  RH  022%=      5-min Rain = 0
KEN1 182340Z 27013KT 24/01 A2969 RMK A01 T02370009  RH  022%=      5-min Rain = 0
KEN1 182341Z 27015KT 24/01 A2969 RMK A01 T02360007  RH  022%=      5-min Rain = 0
KEN1 182342Z 26019G26KT 24/00 A2969 RMK A01 T02360004  RH  022%=      5-min Rain = 0
KEN1 182343Z 26019KT 24/01 A2969 RMK A01 T02370005  RH  022%=      5-min Rain = 0
KEN1 182344Z 27020KT 24/01 A2969 RMK A01 T02370007  RH  022%=      5-min Rain = 0
KEN1 182345Z 27022G27KT 24/01 A2969 RMK A01 T02370008  RH  022%=      5-min Rain = 0
KEN1 182346Z 27021G27KT 24/01 A2969 RMK A01 T02370009  RH  022%=      5-min Rain = 0
KEN1 182347Z 26019G24KT 24/01 A2969 RMK A01 T02360010  RH  023%=      5-min Rain = 0
KEN1 182348Z 27023KT 24/01 A297 RMK A01 T02360011  RH  023%=      5-min Rain = 0
KEN1 182349Z 27020G26KT 24/01 A297 RMK A01 T02350010  RH  023%=      5-min Rain = 0
KEN1 182350Z 27019G26KT 24/01 A297 RMK A01 T02350011  RH  023%=      5-min Rain = 0
KEN1 182351Z 27023KT 23/01 A297 RMK A01 T02340011  RH  023%=      5-min Rain = 0
KEN1 182352Z 27018KT 23/01 A297 RMK A01 T02340011  RH  023%=      5-min Rain = 0
KEN1 182353Z 26019G24KT 23/01 A297 RMK A01 T02330012  RH  023%=      5-min Rain = 0
KEN1 182354Z 26022KT 23/01 A297 RMK A01 T02320012  RH  023%=      5-min Rain = 0
KEN1 182355Z 26020G26KT 23/01 A297 RMK A01 T02320012  RH  023%=      5-min Rain = 0
KEN1 182356Z 26019G25KT 23/01 A297 RMK A01 T02320013  RH  024%=      5-min Rain = 0
KEN1 182357Z 26018G23KT 23/01 A297 RMK A01 T02310013  RH  024%=      5-min Rain = 0
KEN1 182358Z 26020KT 23/01 A297 RMK A01 T02310013  RH  024%=      5-min Rain = 0
KEN1 182359Z 26019KT 23/01 A297 RMK A01 T02310013  RH  024%=      5-min Rain = 0
KEN1 190000Z 26017G22KT 23/01 A297 RMK A01 T02300013  RH  024%=      5-min Rain = 0
KEN1 190001Z 26015KT 23/01 A297 RMK A01 T02290014  RH  024%=      5-min Rain = 0
KEN1 190002Z 26017G22KT 23/02 A297 RMK A01 T02290015  RH  024%=      5-min Rain = 0
KEN1 190003Z 26017KT 23/02 A297 RMK A01 T02280015  RH  025%=      5-min Rain = 0
KEN1 190004Z 26016KT 23/02 A297 RMK A01 T02280016  RH  025%=      5-min Rain = 0
KEN1 190005Z 26018G23KT 23/02 A297 RMK A01 T02270015  RH  025%=      5-min Rain = 0
KEN1 190006Z 26019KT 23/02 A297 RMK A01 T02270015  RH  025%=      5-min Rain = 0
KEN1 190007Z 26017KT 23/01 A297 RMK A01 T02270014  RH  025%=      5-min Rain = 0
KEN1 190008Z 26016KT 23/01 A297 RMK A01 T02270014  RH  025%=      5-min Rain = 0
KEN1 190009Z 26018KT 23/01 A2971 RMK A01 T02260013  RH  024%=      5-min Rain = 0
KEN1 190010Z 26018KT 23/01 A2971 RMK A01 T02270013  RH  024%=      5-min Rain = 0
KEN1 190011Z 26016KT 23/01 A2971 RMK A01 T02270013  RH  024%=      5-min Rain = 0
KEN1 190012Z 26018KT 23/01 A2971 RMK A01 T02260013  RH  024%=      5-min Rain = 0
KEN1 190013Z 26017KT 23/01 A2971 RMK A01 T02260012  RH  024%=      5-min Rain = 0
KEN1 190014Z 26016KT 23/01 A2971 RMK A01 T02250012  RH  024%=      5-min Rain = 0
KEN1 190015Z 26015KT 23/01 A2971 RMK A01 T02250012  RH  024%=      5-min Rain = 0
KEN1 190016Z 26016KT 22/01 A2971 RMK A01 T02240011  RH  024%=      5-min Rain = 0
KEN1 190017Z 27017KT 23/01 A2971 RMK A01 T02250011  RH  024%=      5-min Rain = 0
KEN1 190018Z 26016KT 23/01 A2971 RMK A01 T02250011  RH  024%=      5-min Rain = 0
KEN1 190019Z 26015KT 22/01 A2971 RMK A01 T02240011  RH  024%=      5-min Rain = 0
KEN1 190020Z 26013KT 22/01 A2971 RMK A01 T02240012  RH  025%=      5-min Rain = 0
KEN1 190021Z 26015KT 22/01 A2971 RMK A01 T02230013  RH  025%=      5-min Rain = 0
KEN1 190022Z 26016KT 22/01 A2971 RMK A01 T02220013  RH  025%=      5-min Rain = 0
KEN1 190023Z 25015KT 22/01 A2971 RMK A01 T02220013  RH  025%=      5-min Rain = 0
KEN1 190024Z 26014KT 22/01 A2971 RMK A01 T02220013  RH  025%=      5-min Rain = 0
KEN1 190025Z 26015KT 22/01 A2971 RMK A01 T02220014  RH  025%=      5-min Rain = 0
KEN1 190026Z 25015G20KT 22/01 A2971 RMK A01 T02220013  RH  025%=      5-min Rain = 0
KEN1 190027Z 25017KT 22/01 A2971 RMK A01 T02210012  RH  025%=      5-min Rain = 0
KEN1 190028Z 26015KT 22/01 A2971 RMK A01 T02210012  RH  025%=      5-min Rain = 0
KEN1 190029Z 25015KT 22/01 A2971 RMK A01 T02210012  RH  025%=      5-min Rain = 0
KEN1 190030Z 25015KT 22/01 A2971 RMK A01 T02210012  RH  025%=      5-min Rain = 0
KEN1 190031Z 26015KT 22/01 A2971 RMK A01 T02200012  RH  025%=      5-min Rain = 0
KEN1 190032Z 25016KT 22/01 A2971 RMK A01 T02200012  RH  025%=      5-min Rain = 0
KEN1 190033Z 26015KT 22/01 A2971 RMK A01 T02200013  RH  025%=      5-min Rain = 0
KEN1 190034Z 25014KT 22/01 A2971 RMK A01 T02200013  RH  025%=      5-min Rain = 0
KEN1 190035Z 26017KT 22/01 A2971 RMK A01 T02190012  RH  025%=      5-min Rain = 0
KEN1 190036Z 26018G23KT 22/01 A2971 RMK A01 T02190012  RH  025%=      5-min Rain = 0
KEN1 190037Z 25019KT 22/01 A2971 RMK A01 T02200011  RH  025%=      5-min Rain = 0
KEN1 190038Z 26017KT 22/01 A2971 RMK A01 T02210011  RH  025%=      5-min Rain = 0
KEN1 190039Z 26019KT 22/01 A2971 RMK A01 T02210011  RH  025%=      5-min Rain = 0
KEN1 190040Z 26017G22KT 22/01 A2971 RMK A01 T02210011  RH  025%=      5-min Rain = 0
KEN1 190041Z 26019KT 22/01 A2971 RMK A01 T02200010  RH  025%=      5-min Rain = 0
KEN1 190042Z 26020KT 22/01 A2971 RMK A01 T02200010  RH  025%=      5-min Rain = 0
KEN1 190043Z 26018KT 22/01 A2971 RMK A01 T02200010  RH  025%=      5-min Rain = 0
KEN1 190044Z 26017KT 22/01 A2971 RMK A01 T02200010  RH  025%=      5-min Rain = 0
KEN1 190045Z 26020KT 22/01 A2971 RMK A01 T02190010  RH  025%=      5-min Rain = 0
KEN1 190046Z 26018G23KT 22/01 A2971 RMK A01 T02190009  RH  025%=      5-min Rain = 0
KEN1 190047Z 26017KT 22/01 A2971 RMK A01 T02190009  RH  025%=      5-min Rain = 0
KEN1 190048Z 26021KT 22/01 A2971 RMK A01 T02180009  RH  025%=      5-min Rain = 0
KEN1 190049Z 26019G24KT 22/01 A2972 RMK A01 T02180008  RH  025%=      5-min Rain = 0
KEN1 190050Z 25017KT 22/01 A2972 RMK A01 T02180008  RH  025%=      5-min Rain = 0
KEN1 190051Z 25020KT 22/01 A2971 RMK A01 T02180008  RH  025%=      5-min Rain = 0
KEN1 190052Z 25020KT 22/01 A2971 RMK A01 T02170007  RH  025%=      5-min Rain = 0
KEN1 190053Z 25019KT 22/01 A2971 RMK A01 T02180007  RH  025%=      5-min Rain = 0
KEN1 190054Z 25018KT 22/01 A2972 RMK A01 T02170007  RH  025%=      5-min Rain = 0
KEN1 190055Z 25017KT 22/01 A2971 RMK A01 T02170007  RH  025%=      5-min Rain = 0
KEN1 190056Z 25019KT 22/01 A2972 RMK A01 T02160007  RH  025%=      5-min Rain = 0
KEN1 190057Z 25018KT 22/01 A2972 RMK A01 T02160007  RH  025%=      5-min Rain = 0
KEN1 190058Z 25018KT 22/01 A2972 RMK A01 T02170007  RH  025%=      5-min Rain = 0
KEN1 190059Z 25015G20KT 22/01 A2972 RMK A01 T02160007  RH  025%=      5-min Rain = 0
KEN1 190100Z 25016KT 22/01 A2972 RMK A01 T02160007  RH  025%=      5-min Rain = 0
KEN1 190101Z 25015KT 22/01 A2972 RMK A01 T02150007  RH  025%=      5-min Rain = 0
KEN1 190102Z 25015KT 21/01 A2972 RMK A01 T02140007  RH  025%=      5-min Rain = 0
KEN1 190103Z 25013KT 21/01 A2972 RMK A01 T02130008  RH  026%=      5-min Rain = 0
KEN1 190104Z 25012KT 21/01 A2972 RMK A01 T02120008  RH  026%=      5-min Rain = 0
KEN1 190105Z 25013KT 21/01 A2972 RMK A01 T02100008  RH  026%=      5-min Rain = 0
KEN1 190106Z 24013KT 21/01 A2972 RMK A01 T02100009  RH  026%=      5-min Rain = 0
KEN1 190107Z 25012KT 21/01 A2972 RMK A01 T02090009  RH  026%=      5-min Rain = 0
KEN1 190108Z 24011KT 21/01 A2972 RMK A01 T02080009  RH  026%=      5-min Rain = 0
KEN1 190109Z 24012KT 21/01 A2972 RMK A01 T02080009  RH  027%=      5-min Rain = 0
KEN1 190110Z 24011KT 21/01 A2972 RMK A01 T02070010  RH  027%=      5-min Rain = 0
KEN1 190111Z 24011KT 21/01 A2972 RMK A01 T02070010  RH  027%=      5-min Rain = 0
KEN1 190112Z 24011KT 21/01 A2972 RMK A01 T02060010  RH  027%=      5-min Rain = 0
KEN1 190113Z 24011KT 21/01 A2972 RMK A01 T02060010  RH  027%=      5-min Rain = 0
KEN1 190114Z 24009KT 21/01 A2972 RMK A01 T02050010  RH  027%=      5-min Rain = 0
KEN1 190115Z 24009KT 21/01 A2972 RMK A01 T02050011  RH  028%=      5-min Rain = 0
KEN1 190116Z 24009KT 20/01 A2972 RMK A01 T02040011  RH  028%=      5-min Rain = 0
KEN1 190117Z 24009KT 20/01 A2972 RMK A01 T02030012  RH  028%=      5-min Rain = 0
KEN1 190118Z 24009KT 20/01 A2972 RMK A01 T02020012  RH  028%=      5-min Rain = 0
KEN1 190119Z 23009KT 20/01 A2972 RMK A01 T02020012  RH  028%=      5-min Rain = 0
KEN1 190120Z 24010KT 20/01 A2972 RMK A01 T02010013  RH  028%=      5-min Rain = 0
KEN1 190121Z 24010KT 20/01 A2972 RMK A01 T02010013  RH  028%=      5-min Rain = 0
KEN1 190122Z 24011KT 20/01 A2972 RMK A01 T02010013  RH  028%=      5-min Rain = 0
KEN1 190123Z 24011KT 20/01 A2972 RMK A01 T02010012  RH  028%=      5-min Rain = 0
KEN1 190124Z 24011KT 20/01 A2972 RMK A01 T02010013  RH  028%=      5-min Rain = 0
KEN1 190125Z 24011KT 20/01 A2972 RMK A01 T02020013  RH  028%=      5-min Rain = 0
KEN1 190126Z 24011KT 20/01 A2972 RMK A01 T02010013  RH  028%=      5-min Rain = 0
KEN1 190127Z 24011KT 20/01 A2972 RMK A01 T02010014  RH  029%=      5-min Rain = 0
KEN1 190128Z 24011KT 20/01 A2972 RMK A01 T02010014  RH  029%=      5-min Rain = 0
KEN1 190129Z 24011KT 20/01 A2972 RMK A01 T02010014  RH  029%=      5-min Rain = 0
KEN1 190130Z 24010KT 20/02 A2972 RMK A01 T02010015  RH  029%=      5-min Rain = 0
KEN1 190131Z 24010KT 20/02 A2972 RMK A01 T02010015  RH  029%=      5-min Rain = 0
KEN1 190132Z 24011KT 20/02 A2972 RMK A01 T02010015  RH  029%=      5-min Rain = 0
KEN1 190133Z 24009KT 20/02 A2972 RMK A01 T02010015  RH  029%=      5-min Rain = 0
KEN1 190134Z 24009KT 20/02 A2972 RMK A01 T02010016  RH  029%=      5-min Rain = 0
KEN1 190135Z 24011KT 20/02 A2972 RMK A01 T02000016  RH  029%=      5-min Rain = 0
KEN1 190136Z 25010KT 20/02 A2972 RMK A01 T02000015  RH  029%=      5-min Rain = 0
KEN1 190137Z 25011KT 20/02 A2973 RMK A01 T02010016  RH  029%=      5-min Rain = 0
KEN1 190138Z 25010KT 20/02 A2973 RMK A01 T02010016  RH  029%=      5-min Rain = 0
KEN1 190139Z 24011KT 20/02 A2973 RMK A01 T02000016  RH  029%=      5-min Rain = 0
KEN1 190140Z 25010KT 20/02 A2973 RMK A01 T02000016  RH  029%=      5-min Rain = 0
KEN1 190141Z 25010KT 20/02 A2973 RMK A01 T02000016  RH  029%=      5-min Rain = 0
KEN1 190142Z 25010KT 20/02 A2973 RMK A01 T01990016  RH  030%=      5-min Rain = 0
KEN1 190143Z 25010KT 20/02 A2973 RMK A01 T01990016  RH  030%=      5-min Rain = 0
KEN1 190144Z 25009KT 20/02 A2973 RMK A01 T01980017  RH  030%=      5-min Rain = 0
KEN1 190145Z 25009KT 20/02 A2973 RMK A01 T01980017  RH  030%=      5-min Rain = 0
KEN1 190146Z 25010KT 20/02 A2973 RMK A01 T01970017  RH  030%=      5-min Rain = 0
KEN1 190147Z 25009KT 20/02 A2973 RMK A01 T01970018  RH  030%=      5-min Rain = 0
KEN1 190148Z 25010KT 20/02 A2973 RMK A01 T01960017  RH  030%=      5-min Rain = 0
KEN1 190149Z 25009KT 20/02 A2973 RMK A01 T01950017  RH  030%=      5-min Rain = 0
KEN1 190150Z 25010KT 20/02 A2973 RMK A01 T01950017  RH  030%=      5-min Rain = 0
KEN1 190151Z 25010KT 20/02 A2973 RMK A01 T01950017  RH  031%=      5-min Rain = 0
KEN1 190152Z 25010KT 19/02 A2973 RMK A01 T01940017  RH  031%=      5-min Rain = 0
KEN1 190153Z 25008KT 19/02 A2973 RMK A01 T01940017  RH  031%=      5-min Rain = 0
KEN1 190154Z 25009KT 19/02 A2973 RMK A01 T01930018  RH  031%=      5-min Rain = 0
KEN1 190155Z 25009KT 19/02 A2973 RMK A01 T01910017  RH  031%=      5-min Rain = 0
KEN1 190156Z 25008KT 19/02 A2973 RMK A01 T01900018  RH  031%=      5-min Rain = 0
KEN1 190157Z 25008KT 19/02 A2973 RMK A01 T01890018  RH  032%=      5-min Rain = 0
KEN1 190158Z 25008KT 19/02 A2974 RMK A01 T01890018  RH  032%=      5-min Rain = 0
KEN1 190159Z 26009KT 19/02 A2974 RMK A01 T01870018  RH  032%=      5-min Rain = 0
KEN1 190200Z 26008KT 19/02 A2974 RMK A01 T01870018  RH  032%=      5-min Rain = 0
KEN1 190201Z 26008KT 19/02 A2974 RMK A01 T01860018  RH  033%=      5-min Rain = 0
KEN1 190202Z 26008KT 19/02 A2974 RMK A01 T01850018  RH  033%=      5-min Rain = 0
KEN1 190203Z 26008KT 18/02 A2974 RMK A01 T01830018  RH  033%=      5-min Rain = 0
KEN1 190204Z 26008KT 18/02 A2974 RMK A01 T01820018  RH  033%=      5-min Rain = 0
KEN1 190205Z 26008KT 18/02 A2974 RMK A01 T01800018  RH  034%=      5-min Rain = 0
KEN1 190206Z 26009KT 18/02 A2974 RMK A01 T01800018  RH  034%=      5-min Rain = 0
KEN1 190207Z 25009KT 18/02 A2974 RMK A01 T01800018  RH  034%=      5-min Rain = 0
KEN1 190208Z 26009KT 18/02 A2974 RMK A01 T01800017  RH  034%=      5-min Rain = 0
KEN1 190209Z 25010KT 18/02 A2974 RMK A01 T01800017  RH  034%=      5-min Rain = 0
KEN1 190210Z 25010KT 18/02 A2974 RMK A01 T01800018  RH  034%=      5-min Rain = 0
KEN1 190211Z 25010KT 18/02 A2974 RMK A01 T01800018  RH  034%=      5-min Rain = 0
KEN1 190212Z 26010KT 18/02 A2974 RMK A01 T01780018  RH  034%=      5-min Rain = 0
KEN1 190213Z 25010KT 18/02 A2974 RMK A01 T01770018  RH  034%=      5-min Rain = 0
KEN1 190214Z 25009KT 18/02 A2974 RMK A01 T01770018  RH  035%=      5-min Rain = 0
KEN1 190215Z 26010KT 18/02 A2974 RMK A01 T01750019  RH  035%=      5-min Rain = 0
KEN1 190216Z 26009KT 17/02 A2974 RMK A01 T01740018  RH  035%=      5-min Rain = 0
KEN1 190217Z 26010KT 17/02 A2974 RMK A01 T01740019  RH  035%=      5-min Rain = 0
KEN1 190218Z 26010KT 17/02 A2974 RMK A01 T01730019  RH  035%=      5-min Rain = 0
KEN1 190219Z 25010KT 17/02 A2974 RMK A01 T01730019  RH  036%=      5-min Rain = 0
KEN1 190220Z 25010KT 17/02 A2974 RMK A01 T01720019  RH  036%=      5-min Rain = 0
KEN1 190221Z 25009KT 17/02 A2974 RMK A01 T01720019  RH  036%=      5-min Rain = 0
KEN1 190222Z 26010KT 17/02 A2974 RMK A01 T01710019  RH  036%=      5-min Rain = 0
KEN1 190223Z 25010KT 17/02 A2974 RMK A01 T01710018  RH  036%=      5-min Rain = 0
KEN1 190224Z 26010KT 17/02 A2974 RMK A01 T01710019  RH  036%=      5-min Rain = 0
KEN1 190225Z 26010KT 17/02 A2974 RMK A01 T01710019  RH  036%=      5-min Rain = 0
KEN1 190226Z 26010KT 17/02 A2974 RMK A01 T01710019  RH  036%=      5-min Rain = 0
KEN1 190227Z 25009KT 17/02 A2975 RMK A01 T01700019  RH  036%=      5-min Rain = 0
KEN1 190228Z 25010KT 17/02 A2975 RMK A01 T01690019  RH  036%=      5-min Rain = 0
KEN1 190229Z 25009KT 17/02 A2975 RMK A01 T01690019  RH  036%=      5-min Rain = 0
KEN1 190230Z 25009KT 17/02 A2975 RMK A01 T01690019  RH  037%=      5-min Rain = 0
KEN1 190231Z 25009KT 17/02 A2975 RMK A01 T01680019  RH  037%=      5-min Rain = 0
KEN1 190232Z 26009KT 17/02 A2975 RMK A01 T01670019  RH  037%=      5-min Rain = 0
KEN1 190233Z 25009KT 17/02 A2975 RMK A01 T01670020  RH  037%=      5-min Rain = 0
KEN1 190234Z 25008KT 17/02 A2975 RMK A01 T01670020  RH  037%=      5-min Rain = 0
KEN1 190235Z 26008KT 17/02 A2975 RMK A01 T01670021  RH  037%=      5-min Rain = 0
KEN1 190236Z 26008KT 17/02 A2975 RMK A01 T01650020  RH  038%=      5-min Rain = 0
KEN1 190237Z 26009KT 16/02 A2975 RMK A01 T01640020  RH  038%=      5-min Rain = 0
KEN1 190238Z 26008KT 16/02 A2975 RMK A01 T01640021  RH  038%=      5-min Rain = 0
KEN1 190239Z 26008KT 16/02 A2975 RMK A01 T01630021  RH  038%=      5-min Rain = 0
KEN1 190240Z 26009KT 16/02 A2975 RMK A01 T01630021  RH  038%=      5-min Rain = 0
KEN1 190241Z 26009KT 16/02 A2975 RMK A01 T01630021  RH  038%=      5-min Rain = 0
KEN1 190242Z 25009KT 16/02 A2975 RMK A01 T01630021  RH  038%=      5-min Rain = 0
KEN1 190243Z 25010KT 16/02 A2975 RMK A01 T01640021  RH  038%=      5-min Rain = 0
KEN1 190244Z 25010KT 16/02 A2975 RMK A01 T01640022  RH  038%=      5-min Rain = 0
KEN1 190245Z 25009KT 16/02 A2975 RMK A01 T01640022  RH  038%=      5-min Rain = 0
KEN1 190246Z 26009KT 16/02 A2975 RMK A01 T01640022  RH  038%=      5-min Rain = 0
KEN1 190247Z 26009KT 16/02 A2975 RMK A01 T01640022  RH  038%=      5-min Rain = 0
KEN1 190248Z 26009KT 16/02 A2975 RMK A01 T01630022  RH  039%=      5-min Rain = 0
KEN1 190249Z 26008KT 16/02 A2975 RMK A01 T01620022  RH  039%=      5-min Rain = 0
KEN1 190250Z 26008KT 16/02 A2975 RMK A01 T01620022  RH  039%=      5-min Rain = 0
KEN1 190251Z 26008KT 16/02 A2975 RMK A01 T01610022  RH  039%=      5-min Rain = 0
KEN1 190252Z 27008KT 16/02 A2975 RMK A01 T01600023  RH  040%=      5-min Rain = 0
KEN1 190253Z 27008KT 16/02 A2976 RMK A01 T01590023  RH  040%=      5-min Rain = 0
KEN1 190254Z 28007KT 16/02 A2976 RMK A01 T01580023  RH  040%=      5-min Rain = 0
KEN1 190255Z 28006KT 16/02 A2976 RMK A01 T01560024  RH  041%=      5-min Rain = 0
KEN1 190256Z 30005KT 16/02 A2976 RMK A01 T01550024  RH  041%=      5-min Rain = 0
KEN1 190257Z 29006KT 15/02 A2976 RMK A01 T01520023  RH  042%=      5-min Rain = 0
KEN1 190258Z 28007KT 15/02 A2976 RMK A01 T01500023  RH  042%=      5-min Rain = 0
KEN1 190259Z 27007KT 15/02 A2976 RMK A01 T01490023  RH  043%=      5-min Rain = 0
KEN1 190300Z 27007KT 15/02 A2976 RMK A01 T01480023  RH  043%=      5-min Rain = 0
KEN1 190301Z 27007KT 15/02 A2976 RMK A01 T01470023  RH  043%=      5-min Rain = 0
KEN1 190302Z 26007KT 15/02 A2976 RMK A01 T01460023  RH  043%=      5-min Rain = 0
KEN1 190303Z 26007KT 15/02 A2976 RMK A01 T01450023  RH  044%=      5-min Rain = 0
KEN1 190304Z 26007KT 14/02 A2976 RMK A01 T01440024  RH  044%=      5-min Rain = 0
KEN1 190305Z 26006KT 14/02 A2976 RMK A01 T01440024  RH  044%=      5-min Rain = 0
KEN1 190306Z 26006KT 14/02 A2976 RMK A01 T01440024  RH  044%=      5-min Rain = 0
KEN1 190307Z 27006KT 14/02 A2977 RMK A01 T01440024  RH  044%=      5-min Rain = 0
KEN1 190308Z 27006KT 14/02 A2977 RMK A01 T01430024  RH  045%=      5-min Rain = 0
KEN1 190309Z 27006KT 14/02 A2977 RMK A01 T01430023  RH  044%=      5-min Rain = 0
KEN1 190310Z 27006KT 14/02 A2977 RMK A01 T01430024  RH  044%=      5-min Rain = 0
KEN1 190311Z 27006KT 14/02 A2977 RMK A01 T01430024  RH  045%=      5-min Rain = 0
KEN1 190312Z 27007KT 14/02 A2977 RMK A01 T01420024  RH  045%=      5-min Rain = 0
KEN1 190313Z 27006KT 14/02 A2977 RMK A01 T01420024  RH  045%=      5-min Rain = 0
KEN1 190314Z 27006KT 14/02 A2977 RMK A01 T01420024  RH  045%=      5-min Rain = 0
KEN1 190315Z 27006KT 14/02 A2977 RMK A01 T01410023  RH  045%=      5-min Rain = 0
KEN1 190316Z 27006KT 14/02 A2977 RMK A01 T01410024  RH  045%=      5-min Rain = 0
KEN1 190317Z 27006KT 14/02 A2977 RMK A01 T01410023  RH  045%=      5-min Rain = 0
KEN1 190318Z 26006KT 14/02 A2977 RMK A01 T01410024  RH  045%=      5-min Rain = 0
KEN1 190319Z 26006KT 14/02 A2977 RMK A01 T01400024  RH  045%=      5-min Rain = 0
KEN1 190320Z 26006KT 14/02 A2977 RMK A01 T01390023  RH  045%=      5-min Rain = 0
KEN1 190321Z 26005KT 14/02 A2977 RMK A01 T01390024  RH  046%=      5-min Rain = 0
KEN1 190322Z 27006KT 14/02 A2977 RMK A01 T01380023  RH  046%=      5-min Rain = 0
KEN1 190323Z 26006KT 14/02 A2977 RMK A01 T01380023  RH  046%=      5-min Rain = 0
KEN1 190324Z 26006KT 14/02 A2977 RMK A01 T01380023  RH  046%=      5-min Rain = 0
KEN1 190325Z 26006KT 14/02 A2977 RMK A01 T01380024  RH  046%=      5-min Rain = 0
KEN1 190326Z 27006KT 14/02 A2977 RMK A01 T01370024  RH  046%=      5-min Rain = 0
KEN1 190327Z 27005KT 14/02 A2977 RMK A01 T01360024  RH  047%=      5-min Rain = 0
KEN1 190328Z 27005KT 14/02 A2977 RMK A01 T01360024  RH  047%=      5-min Rain = 0
KEN1 190329Z 27005KT 13/02 A2977 RMK A01 T01340024  RH  047%=      5-min Rain = 0
KEN1 190330Z 27005KT 13/02 A2977 RMK A01 T01340024  RH  047%=      5-min Rain = 0
KEN1 190331Z 27005KT 13/02 A2978 RMK A01 T01340024  RH  047%=      5-min Rain = 0
KEN1 190332Z 27005KT 13/02 A2977 RMK A01 T01330024  RH  048%=      5-min Rain = 0
KEN1 190333Z 27005KT 13/03 A2978 RMK A01 T01330025  RH  048%=      5-min Rain = 0
KEN1 190334Z 27006KT 13/03 A2978 RMK A01 T01330025  RH  048%=      5-min Rain = 0
KEN1 190335Z 27006KT 13/03 A2978 RMK A01 T01330025  RH  048%=      5-min Rain = 0
KEN1 190336Z 27006KT 13/03 A2978 RMK A01 T01330025  RH  048%=      5-min Rain = 0
KEN1 190337Z 28006KT 13/03 A2978 RMK A01 T01330025  RH  048%=      5-min Rain = 0
KEN1 190338Z 28005KT 13/03 A2978 RMK A01 T01340025  RH  048%=      5-min Rain = 0
KEN1 190339Z 28005KT 13/03 A2978 RMK A01 T01330026  RH  048%=      5-min Rain = 0
KEN1 190340Z 28005KT 13/03 A2978 RMK A01 T01320025  RH  048%=      5-min Rain = 0
KEN1 190341Z 28005KT 13/03 A2978 RMK A01 T01320025  RH  049%=      5-min Rain = 0
KEN1 190342Z 27005KT 13/03 A2978 RMK A01 T01310026  RH  049%=      5-min Rain = 0
KEN1 190343Z 27005KT 13/03 A2978 RMK A01 T01310026  RH  049%=      5-min Rain = 0
KEN1 190344Z 28004KT 13/03 A2978 RMK A01 T01300026  RH  049%=      5-min Rain = 0
KEN1 190345Z 28004KT 13/03 A2978 RMK A01 T01300026  RH  049%=      5-min Rain = 0
KEN1 190346Z 30004KT 13/03 A2978 RMK A01 T01290025  RH  049%=      5-min Rain = 0
KEN1 190347Z 30004KT 13/03 A2978 RMK A01 T01290026  RH  050%=      5-min Rain = 0
KEN1 190348Z 29005KT 13/03 A2979 RMK A01 T01290025  RH  049%=      5-min Rain = 0
KEN1 190349Z 29006KT 13/03 A2979 RMK A01 T01310025  RH  049%=      5-min Rain = 0
KEN1 190350Z 28006KT 13/03 A2979 RMK A01 T01330026  RH  048%=      5-min Rain = 0
KEN1 190351Z 28006KT 14/03 A2979 RMK A01 T01350026  RH  048%=      5-min Rain = 0
KEN1 190352Z 28006KT 14/03 A2979 RMK A01 T01360026  RH  047%=      5-min Rain = 0
KEN1 190353Z 28005KT 14/03 A2979 RMK A01 T01360025  RH  047%=      5-min Rain = 0
KEN1 190354Z 28006KT 14/03 A2979 RMK A01 T01360025  RH  047%=      5-min Rain = 0
KEN1 190355Z 28006KT 14/03 A2979 RMK A01 T01360025  RH  047%=      5-min Rain = 0
KEN1 190356Z 27006KT 14/03 A2979 RMK A01 T01360025  RH  047%=      5-min Rain = 0
KEN1 190357Z 27005KT 14/03 A2979 RMK A01 T01360025  RH  047%=      5-min Rain = 0
KEN1 190358Z 27006KT 14/03 A2979 RMK A01 T01350026  RH  048%=      5-min Rain = 0
KEN1 190359Z 27005KT 13/03 A2979 RMK A01 T01340025  RH  048%=      5-min Rain = 0
KEN1 190400Z 27005KT 13/03 A2979 RMK A01 T01330025  RH  048%=      5-min Rain = 0
KEN1 190401Z 27004KT 13/03 A2979 RMK A01 T01330026  RH  048%=      5-min Rain = 0
KEN1 190402Z 28004KT 13/03 A2979 RMK A01 T01320025  RH  048%=      5-min Rain = 0
KEN1 190403Z 29003KT 13/03 A2979 RMK A01 T01310025  RH  048%=      5-min Rain = 0
KEN1 190404Z 30003KT 13/03 A2979 RMK A01 T01310025  RH  049%=      5-min Rain = 0
KEN1 190405Z 29003KT 13/03 A2979 RMK A01 T01300025  RH  049%=      5-min Rain = 0
KEN1 190406Z 29004KT 13/03 A298 RMK A01 T01290025  RH  049%=      5-min Rain = 0
KEN1 190407Z 29004KT 13/03 A298 RMK A01 T01290025  RH  049%=      5-min Rain = 0
KEN1 190408Z 30003KT 13/03 A298 RMK A01 T01290025  RH  049%=      5-min Rain = 0
KEN1 190409Z 30004KT 13/03 A298 RMK A01 T01290025  RH  049%=      5-min Rain = 0
KEN1 190410Z 28004KT 13/03 A298 RMK A01 T01290025  RH  049%=      5-min Rain = 0
KEN1 190411Z 27005KT 13/03 A298 RMK A01 T01290026  RH  049%=      5-min Rain = 0
KEN1 190412Z 27004KT 13/03 A298 RMK A01 T01290025  RH  049%=      5-min Rain = 0
KEN1 190413Z 28005KT 13/03 A298 RMK A01 T01290026  RH  049%=      5-min Rain = 0
KEN1 190414Z 27005KT 13/03 A298 RMK A01 T01290026  RH  050%=      5-min Rain = 0
KEN1 190415Z 27005KT 13/03 A298 RMK A01 T01280026  RH  050%=      5-min Rain = 0
KEN1 190416Z 27006KT 13/03 A298 RMK A01 T01270026  RH  050%=      5-min Rain = 0
KEN1 190417Z 27006KT 13/03 A298 RMK A01 T01270027  RH  051%=      5-min Rain = 0
KEN1 190418Z 27006KT 13/03 A298 RMK A01 T01250027  RH  051%=      5-min Rain = 0
KEN1 190419Z 27007KT 13/03 A298 RMK A01 T01250027  RH  051%=      5-min Rain = 0
KEN1 190420Z 27007KT 12/03 A298 RMK A01 T01240027  RH  052%=      5-min Rain = 0
KEN1 190421Z 27006KT 12/03 A298 RMK A01 T01230027  RH  052%=      5-min Rain = 0
KEN1 190422Z 27006KT 12/03 A298 RMK A01 T01230027  RH  052%=      5-min Rain = 0
KEN1 190423Z 26006KT 12/03 A298 RMK A01 T01220027  RH  052%=      5-min Rain = 0
KEN1 190424Z 26006KT 12/03 A298 RMK A01 T01210027  RH  053%=      5-min Rain = 0
KEN1 190425Z 27006KT 12/03 A298 RMK A01 T01190027  RH  053%=      5-min Rain = 0
KEN1 190426Z 27006KT 12/03 A298 RMK A01 T01180027  RH  054%=      5-min Rain = 0
KEN1 190427Z 27006KT 12/03 A2981 RMK A01 T01170027  RH  054%=      5-min Rain = 0
KEN1 190428Z 27006KT 12/03 A2981 RMK A01 T01170028  RH  054%=      5-min Rain = 0
KEN1 190429Z 27006KT 12/03 A2981 RMK A01 T01160027  RH  055%=      5-min Rain = 0
KEN1 190430Z 27006KT 12/03 A2981 RMK A01 T01150027  RH  055%=      5-min Rain = 0
KEN1 190431Z 27007KT 12/03 A2981 RMK A01 T01150027  RH  055%=      5-min Rain = 0
KEN1 190432Z 28007KT 12/03 A2981 RMK A01 T01150027  RH  055%=      5-min Rain = 0
KEN1 190433Z 28007KT 12/03 A2981 RMK A01 T01160027  RH  054%=      5-min Rain = 0
KEN1 190434Z 28007KT 12/03 A2981 RMK A01 T01190027  RH  053%=      5-min Rain = 0
KEN1 190435Z 28006KT 12/03 A2981 RMK A01 T01210027  RH  053%=      5-min Rain = 0
KEN1 190436Z 28006KT 12/03 A2981 RMK A01 T01210026  RH  052%=      5-min Rain = 0
KEN1 190437Z 29007KT 12/03 A2981 RMK A01 T01220026  RH  052%=      5-min Rain = 0
KEN1 190438Z 29007KT 12/03 A2981 RMK A01 T01220026  RH  052%=      5-min Rain = 0
KEN1 190439Z 29007KT 12/03 A2981 RMK A01 T01240026  RH  051%=      5-min Rain = 0
KEN1 190440Z 29006KT 12/03 A2981 RMK A01 T01240025  RH  051%=      5-min Rain = 0
KEN1 190441Z 29007KT 13/03 A2981 RMK A01 T01250025  RH  051%=      5-min Rain = 0
KEN1 190442Z 29006KT 13/03 A2981 RMK A01 T01250025  RH  051%=      5-min Rain = 0
KEN1 190443Z 29006KT 12/03 A2981 RMK A01 T01240025  RH  051%=      5-min Rain = 0
KEN1 190444Z 28007KT 12/03 A2981 RMK A01 T01240025  RH  051%=      5-min Rain = 0
KEN1 190445Z 28007KT 12/03 A2981 RMK A01 T01230025  RH  051%=      5-min Rain = 0
KEN1 190446Z 28007KT 12/03 A2981 RMK A01 T01220025  RH  051%=      5-min Rain = 0
KEN1 190447Z 28007KT 12/03 A2981 RMK A01 T01210025  RH  052%=      5-min Rain = 0
KEN1 190448Z 28007KT 12/03 A2981 RMK A01 T01210025  RH  052%=      5-min Rain = 0
KEN1 190449Z 28008KT 12/03 A2981 RMK A01 T01190025  RH  052%=      5-min Rain = 0
KEN1 190450Z 28008KT 12/03 A2981 RMK A01 T01190025  RH  052%=      5-min Rain = 0
KEN1 190451Z 28007KT 12/03 A2981 RMK A01 T01190025  RH  052%=      5-min Rain = 0
KEN1 190452Z 28007KT 12/03 A2981 RMK A01 T01190025  RH  052%=      5-min Rain = 0
KEN1 190453Z 28006KT 12/03 A2981 RMK A01 T01190025  RH  053%=      5-min Rain = 0
KEN1 190454Z 28006KT 12/03 A2981 RMK A01 T01180025  RH  053%=      5-min Rain = 0
KEN1 190455Z 28006KT 12/03 A2982 RMK A01 T01170025  RH  053%=      5-min Rain = 0
KEN1 190456Z 29006KT 12/03 A2982 RMK A01 T01160025  RH  054%=      5-min Rain = 0
KEN1 190457Z 30006KT 11/03 A2982 RMK A01 T01140025  RH  054%=      5-min Rain = 0
KEN1 190458Z 31005KT 11/03 A2982 RMK A01 T01130025  RH  055%=      5-min Rain = 0
KEN1 190459Z 31006KT 11/03 A2982 RMK A01 T01120025  RH  055%=      5-min Rain = 0

Page generated in 0.1425 seconds.